<?xml version="1.0" encoding="UTF-8" standalone="no" ?>
<gpx xmlns="http://www.topografix.com/GPX/1/1" xmlns:xsi="http://www.w3.org/2001/XMLSchema-instance" xsi:schemaLocation="http://www.topografix.com/GPX/1/1 http://www.topografix.com/GPX/1/1/gpx.xsd" version="1.1" creator="VisuGPX - https://www.visugpx.com">
  <metadata>
    <name>Thorame (04) - Fabas (82) -  2021</name>
    <desc><![CDATA[Thorame (04) - Fabas (82) -  2021
plus de voies vertes qu'à l'aller vers Tarascon...]]></desc>
  </metadata>
  <trk>
    <name><![CDATA[Jour05]]></name>
    <trkseg>
      <trkpt lat="43.86517" lon="3.31677">
        <ele>701.4</ele>
        <time>2021-08-17T06:02:16Z</time>
      </trkpt>
      <trkpt lat="43.86611" lon="3.31592">
        <ele>718.1</ele>
        <time>2021-08-17T06:02:36Z</time>
      </trkpt>
      <trkpt lat="43.8672" lon="3.31558">
        <ele>718.8</ele>
        <time>2021-08-17T06:02:51Z</time>
      </trkpt>
      <trkpt lat="43.8682" lon="3.31524">
        <ele>717.7</ele>
        <time>2021-08-17T06:03:06Z</time>
      </trkpt>
      <trkpt lat="43.86904" lon="3.31482">
        <ele>716.6</ele>
        <time>2021-08-17T06:03:21Z</time>
      </trkpt>
      <trkpt lat="43.8699" lon="3.31419">
        <ele>717.4</ele>
        <time>2021-08-17T06:03:46Z</time>
      </trkpt>
      <trkpt lat="43.87083" lon="3.31377">
        <ele>723</ele>
        <time>2021-08-17T06:04:21Z</time>
      </trkpt>
      <trkpt lat="43.87162" lon="3.31319">
        <ele>734.4</ele>
        <time>2021-08-17T06:04:56Z</time>
      </trkpt>
      <trkpt lat="43.8726" lon="3.31334">
        <ele>729.3</ele>
        <time>2021-08-17T06:05:31Z</time>
      </trkpt>
      <trkpt lat="43.8735" lon="3.31373">
        <ele>731.5</ele>
        <time>2021-08-17T06:06:06Z</time>
      </trkpt>
      <trkpt lat="43.8744" lon="3.31398">
        <ele>728.1</ele>
        <time>2021-08-17T06:06:41Z</time>
      </trkpt>
      <trkpt lat="43.87535" lon="3.31355">
        <ele>735</ele>
        <time>2021-08-17T06:07:21Z</time>
      </trkpt>
      <trkpt lat="43.87629" lon="3.31306">
        <ele>746.3</ele>
        <time>2021-08-17T06:08:08Z</time>
      </trkpt>
      <trkpt lat="43.87718" lon="3.31277">
        <ele>750.9</ele>
        <time>2021-08-17T06:08:43Z</time>
      </trkpt>
      <trkpt lat="43.87811" lon="3.31242">
        <ele>749.6</ele>
        <time>2021-08-17T06:09:13Z</time>
      </trkpt>
      <trkpt lat="43.87898" lon="3.31206">
        <ele>747.7</ele>
        <time>2021-08-17T06:09:38Z</time>
      </trkpt>
      <trkpt lat="43.87994" lon="3.31163">
        <ele>752.8</ele>
        <time>2021-08-17T06:10:13Z</time>
      </trkpt>
      <trkpt lat="43.88082" lon="3.31112">
        <ele>764.8</ele>
        <time>2021-08-17T06:10:53Z</time>
      </trkpt>
      <trkpt lat="43.88164" lon="3.31058">
        <ele>760.1</ele>
        <time>2021-08-17T06:11:33Z</time>
      </trkpt>
      <trkpt lat="43.88212" lon="3.30952">
        <ele>764.3</ele>
        <time>2021-08-17T06:11:58Z</time>
      </trkpt>
      <trkpt lat="43.88278" lon="3.30852">
        <ele>764.7</ele>
        <time>2021-08-17T06:12:23Z</time>
      </trkpt>
      <trkpt lat="43.88335" lon="3.30756">
        <ele>760.2</ele>
        <time>2021-08-17T06:12:43Z</time>
      </trkpt>
      <trkpt lat="43.88385" lon="3.30645">
        <ele>761.5</ele>
        <time>2021-08-17T06:13:08Z</time>
      </trkpt>
      <trkpt lat="43.88426" lon="3.30518">
        <ele>763</ele>
        <time>2021-08-17T06:13:43Z</time>
      </trkpt>
      <trkpt lat="43.88461" lon="3.3039">
        <ele>762.6</ele>
        <time>2021-08-17T06:14:08Z</time>
      </trkpt>
      <trkpt lat="43.88476" lon="3.3024">
        <ele>759</ele>
        <time>2021-08-17T06:14:28Z</time>
      </trkpt>
      <trkpt lat="43.88481" lon="3.30103">
        <ele>756</ele>
        <time>2021-08-17T06:14:48Z</time>
      </trkpt>
      <trkpt lat="43.88489" lon="3.29974">
        <ele>756.2</ele>
        <time>2021-08-17T06:15:23Z</time>
      </trkpt>
      <trkpt lat="43.88505" lon="3.29842">
        <ele>760.5</ele>
        <time>2021-08-17T06:15:58Z</time>
      </trkpt>
      <trkpt lat="43.88551" lon="3.29707">
        <ele>760.6</ele>
        <time>2021-08-17T06:16:23Z</time>
      </trkpt>
      <trkpt lat="43.88566" lon="3.2958">
        <ele>758</ele>
        <time>2021-08-17T06:17:11Z</time>
      </trkpt>
      <trkpt lat="43.88631" lon="3.29492">
        <ele>759.7</ele>
        <time>2021-08-17T06:17:41Z</time>
      </trkpt>
      <trkpt lat="43.88703" lon="3.29399">
        <ele>766.8</ele>
        <time>2021-08-17T06:18:11Z</time>
      </trkpt>
      <trkpt lat="43.8876" lon="3.29291">
        <ele>765.3</ele>
        <time>2021-08-17T06:18:41Z</time>
      </trkpt>
      <trkpt lat="43.88812" lon="3.29162">
        <ele>763</ele>
        <time>2021-08-17T06:19:11Z</time>
      </trkpt>
      <trkpt lat="43.88844" lon="3.2902">
        <ele>754</ele>
        <time>2021-08-17T06:19:36Z</time>
      </trkpt>
      <trkpt lat="43.88867" lon="3.28892">
        <ele>750.5</ele>
        <time>2021-08-17T06:19:56Z</time>
      </trkpt>
      <trkpt lat="43.88905" lon="3.28747">
        <ele>743.3</ele>
        <time>2021-08-17T06:20:16Z</time>
      </trkpt>
      <trkpt lat="43.88947" lon="3.28635">
        <ele>738.3</ele>
        <time>2021-08-17T06:20:46Z</time>
      </trkpt>
      <trkpt lat="43.89009" lon="3.2852">
        <ele>747.4</ele>
        <time>2021-08-17T06:21:26Z</time>
      </trkpt>
      <trkpt lat="43.89072" lon="3.28422">
        <ele>750</ele>
        <time>2021-08-17T06:21:56Z</time>
      </trkpt>
      <trkpt lat="43.89147" lon="3.28339">
        <ele>749.7</ele>
        <time>2021-08-17T06:22:31Z</time>
      </trkpt>
      <trkpt lat="43.89227" lon="3.28272">
        <ele>748.4</ele>
        <time>2021-08-17T06:23:06Z</time>
      </trkpt>
      <trkpt lat="43.89319" lon="3.28209">
        <ele>753</ele>
        <time>2021-08-17T06:23:36Z</time>
      </trkpt>
      <trkpt lat="43.89402" lon="3.28156">
        <ele>751.7</ele>
        <time>2021-08-17T06:24:06Z</time>
      </trkpt>
      <trkpt lat="43.89473" lon="3.28051">
        <ele>746.8</ele>
        <time>2021-08-17T06:24:41Z</time>
      </trkpt>
      <trkpt lat="43.89524" lon="3.27946">
        <ele>749.1</ele>
        <time>2021-08-17T06:25:06Z</time>
      </trkpt>
      <trkpt lat="43.89612" lon="3.27863">
        <ele>749</ele>
        <time>2021-08-17T06:25:36Z</time>
      </trkpt>
      <trkpt lat="43.89687" lon="3.27795">
        <ele>750.9</ele>
        <time>2021-08-17T06:26:01Z</time>
      </trkpt>
      <trkpt lat="43.89735" lon="3.27692">
        <ele>751.9</ele>
        <time>2021-08-17T06:26:31Z</time>
      </trkpt>
      <trkpt lat="43.89799" lon="3.27596">
        <ele>761.7</ele>
        <time>2021-08-17T06:27:49Z</time>
      </trkpt>
      <trkpt lat="43.89871" lon="3.27517">
        <ele>763</ele>
        <time>2021-08-17T06:28:30Z</time>
      </trkpt>
      <trkpt lat="43.89916" lon="3.27411">
        <ele>772</ele>
        <time>2021-08-17T06:29:10Z</time>
      </trkpt>
      <trkpt lat="43.89941" lon="3.27285">
        <ele>774.6</ele>
        <time>2021-08-17T06:29:55Z</time>
      </trkpt>
      <trkpt lat="43.89992" lon="3.27183">
        <ele>777.4</ele>
        <time>2021-08-17T06:30:35Z</time>
      </trkpt>
      <trkpt lat="43.90055" lon="3.27078">
        <ele>771.4</ele>
        <time>2021-08-17T06:31:20Z</time>
      </trkpt>
      <trkpt lat="43.90117" lon="3.26986">
        <ele>778.1</ele>
        <time>2021-08-17T06:32:00Z</time>
      </trkpt>
      <trkpt lat="43.90163" lon="3.26856">
        <ele>789.6</ele>
        <time>2021-08-17T06:32:35Z</time>
      </trkpt>
      <trkpt lat="43.90205" lon="3.26732">
        <ele>795.2</ele>
        <time>2021-08-17T06:34:14Z</time>
      </trkpt>
      <trkpt lat="43.90194" lon="3.2658">
        <ele>790.8</ele>
        <time>2021-08-17T06:34:39Z</time>
      </trkpt>
      <trkpt lat="43.90154" lon="3.26435">
        <ele>785.2</ele>
        <time>2021-08-17T06:35:04Z</time>
      </trkpt>
      <trkpt lat="43.9008" lon="3.26311">
        <ele>783.4</ele>
        <time>2021-08-17T06:35:24Z</time>
      </trkpt>
      <trkpt lat="43.901" lon="3.26185">
        <ele>788.1</ele>
        <time>2021-08-17T06:35:44Z</time>
      </trkpt>
      <trkpt lat="43.90088" lon="3.2604">
        <ele>781.3</ele>
        <time>2021-08-17T06:36:14Z</time>
      </trkpt>
      <trkpt lat="43.90044" lon="3.25919">
        <ele>777.9</ele>
        <time>2021-08-17T06:36:34Z</time>
      </trkpt>
      <trkpt lat="43.90028" lon="3.25767">
        <ele>775.5</ele>
        <time>2021-08-17T06:36:54Z</time>
      </trkpt>
      <trkpt lat="43.90053" lon="3.25645">
        <ele>782.5</ele>
        <time>2021-08-17T06:37:24Z</time>
      </trkpt>
      <trkpt lat="43.90088" lon="3.25519">
        <ele>789.5</ele>
        <time>2021-08-17T06:37:59Z</time>
      </trkpt>
      <trkpt lat="43.90091" lon="3.25387">
        <ele>794.6</ele>
        <time>2021-08-17T06:38:29Z</time>
      </trkpt>
      <trkpt lat="43.90074" lon="3.25235">
        <ele>794</ele>
        <time>2021-08-17T06:38:59Z</time>
      </trkpt>
      <trkpt lat="43.90084" lon="3.25087">
        <ele>794</ele>
        <time>2021-08-17T06:39:19Z</time>
      </trkpt>
      <trkpt lat="43.90074" lon="3.24944">
        <ele>791.6</ele>
        <time>2021-08-17T06:39:39Z</time>
      </trkpt>
      <trkpt lat="43.90055" lon="3.24818">
        <ele>792.9</ele>
        <time>2021-08-17T06:40:04Z</time>
      </trkpt>
      <trkpt lat="43.90026" lon="3.24697">
        <ele>793.7</ele>
        <time>2021-08-17T06:40:29Z</time>
      </trkpt>
      <trkpt lat="43.90024" lon="3.24549">
        <ele>793.5</ele>
        <time>2021-08-17T06:40:54Z</time>
      </trkpt>
      <trkpt lat="43.90058" lon="3.24419">
        <ele>795</ele>
        <time>2021-08-17T06:41:19Z</time>
      </trkpt>
      <trkpt lat="43.90098" lon="3.24308">
        <ele>797.4</ele>
        <time>2021-08-17T06:41:49Z</time>
      </trkpt>
      <trkpt lat="43.90132" lon="3.24172">
        <ele>801.9</ele>
        <time>2021-08-17T06:42:19Z</time>
      </trkpt>
      <trkpt lat="43.90155" lon="3.24038">
        <ele>795.8</ele>
        <time>2021-08-17T06:42:49Z</time>
      </trkpt>
      <trkpt lat="43.90199" lon="3.23906">
        <ele>794.2</ele>
        <time>2021-08-17T06:43:14Z</time>
      </trkpt>
      <trkpt lat="43.90227" lon="3.23788">
        <ele>790.8</ele>
        <time>2021-08-17T06:43:34Z</time>
      </trkpt>
      <trkpt lat="43.90245" lon="3.23664">
        <ele>795.9</ele>
        <time>2021-08-17T06:44:38Z</time>
      </trkpt>
      <trkpt lat="43.90266" lon="3.23532">
        <ele>796.2</ele>
        <time>2021-08-17T06:44:58Z</time>
      </trkpt>
      <trkpt lat="43.90292" lon="3.23389">
        <ele>795.6</ele>
        <time>2021-08-17T06:45:18Z</time>
      </trkpt>
      <trkpt lat="43.90308" lon="3.23245">
        <ele>792</ele>
        <time>2021-08-17T06:45:38Z</time>
      </trkpt>
      <trkpt lat="43.90322" lon="3.23097">
        <ele>791.3</ele>
        <time>2021-08-17T06:45:58Z</time>
      </trkpt>
      <trkpt lat="43.90348" lon="3.22968">
        <ele>789.3</ele>
        <time>2021-08-17T06:46:13Z</time>
      </trkpt>
      <trkpt lat="43.90381" lon="3.22851">
        <ele>786.9</ele>
        <time>2021-08-17T06:46:28Z</time>
      </trkpt>
      <trkpt lat="43.90427" lon="3.22727">
        <ele>785.9</ele>
        <time>2021-08-17T06:46:43Z</time>
      </trkpt>
      <trkpt lat="43.90462" lon="3.22576">
        <ele>782.4</ele>
        <time>2021-08-17T06:47:03Z</time>
      </trkpt>
      <trkpt lat="43.9047" lon="3.22425">
        <ele>779.8</ele>
        <time>2021-08-17T06:47:23Z</time>
      </trkpt>
      <trkpt lat="43.90483" lon="3.22279">
        <ele>774.8</ele>
        <time>2021-08-17T06:47:48Z</time>
      </trkpt>
      <trkpt lat="43.90516" lon="3.22137">
        <ele>774.5</ele>
        <time>2021-08-17T06:48:13Z</time>
      </trkpt>
      <trkpt lat="43.90537" lon="3.21999">
        <ele>770.2</ele>
        <time>2021-08-17T06:48:38Z</time>
      </trkpt>
      <trkpt lat="43.90544" lon="3.21873">
        <ele>772.2</ele>
        <time>2021-08-17T06:49:08Z</time>
      </trkpt>
      <trkpt lat="43.90548" lon="3.21735">
        <ele>771.3</ele>
        <time>2021-08-17T06:49:56Z</time>
      </trkpt>
      <trkpt lat="43.90585" lon="3.21598">
        <ele>771.6</ele>
        <time>2021-08-17T06:50:16Z</time>
      </trkpt>
      <trkpt lat="43.90673" lon="3.21521">
        <ele>771.1</ele>
        <time>2021-08-17T06:50:41Z</time>
      </trkpt>
      <trkpt lat="43.90739" lon="3.214">
        <ele>775.1</ele>
        <time>2021-08-17T06:51:01Z</time>
      </trkpt>
      <trkpt lat="43.90781" lon="3.21289">
        <ele>778.2</ele>
        <time>2021-08-17T06:51:21Z</time>
      </trkpt>
      <trkpt lat="43.90821" lon="3.21139">
        <ele>773.6</ele>
        <time>2021-08-17T06:51:41Z</time>
      </trkpt>
      <trkpt lat="43.9088" lon="3.21017">
        <ele>767.6</ele>
        <time>2021-08-17T06:51:56Z</time>
      </trkpt>
      <trkpt lat="43.90959" lon="3.20934">
        <ele>763.9</ele>
        <time>2021-08-17T06:52:16Z</time>
      </trkpt>
      <trkpt lat="43.91032" lon="3.20814">
        <ele>765.3</ele>
        <time>2021-08-17T06:52:36Z</time>
      </trkpt>
      <trkpt lat="43.91081" lon="3.20687">
        <ele>766.3</ele>
        <time>2021-08-17T06:52:56Z</time>
      </trkpt>
      <trkpt lat="43.91133" lon="3.20545">
        <ele>766.7</ele>
        <time>2021-08-17T06:53:16Z</time>
      </trkpt>
      <trkpt lat="43.91175" lon="3.20435">
        <ele>759.3</ele>
        <time>2021-08-17T06:53:31Z</time>
      </trkpt>
      <trkpt lat="43.91223" lon="3.20302">
        <ele>761.7</ele>
        <time>2021-08-17T06:53:51Z</time>
      </trkpt>
      <trkpt lat="43.91274" lon="3.20184">
        <ele>766.4</ele>
        <time>2021-08-17T06:54:11Z</time>
      </trkpt>
      <trkpt lat="43.91296" lon="3.20058">
        <ele>766.2</ele>
        <time>2021-08-17T06:54:31Z</time>
      </trkpt>
      <trkpt lat="43.91319" lon="3.19913">
        <ele>766.2</ele>
        <time>2021-08-17T06:54:56Z</time>
      </trkpt>
      <trkpt lat="43.91314" lon="3.19768">
        <ele>760.8</ele>
        <time>2021-08-17T06:55:26Z</time>
      </trkpt>
      <trkpt lat="43.91328" lon="3.19637">
        <ele>760.3</ele>
        <time>2021-08-17T06:56:01Z</time>
      </trkpt>
      <trkpt lat="43.91317" lon="3.19507">
        <ele>758.1</ele>
        <time>2021-08-17T06:56:31Z</time>
      </trkpt>
      <trkpt lat="43.91301" lon="3.19374">
        <ele>756.7</ele>
        <time>2021-08-17T06:57:01Z</time>
      </trkpt>
      <trkpt lat="43.91265" lon="3.19249">
        <ele>756</ele>
        <time>2021-08-17T06:57:16Z</time>
      </trkpt>
      <trkpt lat="43.9121" lon="3.19135">
        <ele>755.5</ele>
        <time>2021-08-17T06:57:31Z</time>
      </trkpt>
      <trkpt lat="43.91192" lon="3.19">
        <ele>753.6</ele>
        <time>2021-08-17T06:57:46Z</time>
      </trkpt>
      <trkpt lat="43.91159" lon="3.18871">
        <ele>751.8</ele>
        <time>2021-08-17T06:58:06Z</time>
      </trkpt>
      <trkpt lat="43.9109" lon="3.18737">
        <ele>749.5</ele>
        <time>2021-08-17T06:58:21Z</time>
      </trkpt>
      <trkpt lat="43.91057" lon="3.18596">
        <ele>747.8</ele>
        <time>2021-08-17T06:58:36Z</time>
      </trkpt>
      <trkpt lat="43.91051" lon="3.18468">
        <ele>745.7</ele>
        <time>2021-08-17T06:58:51Z</time>
      </trkpt>
      <trkpt lat="43.9102" lon="3.18341">
        <ele>742.1</ele>
        <time>2021-08-17T06:59:21Z</time>
      </trkpt>
      <trkpt lat="43.90958" lon="3.18245">
        <ele>741.2</ele>
        <time>2021-08-17T06:59:41Z</time>
      </trkpt>
      <trkpt lat="43.90904" lon="3.18096">
        <ele>739.8</ele>
        <time>2021-08-17T07:00:01Z</time>
      </trkpt>
      <trkpt lat="43.90862" lon="3.17939">
        <ele>737.1</ele>
        <time>2021-08-17T07:00:21Z</time>
      </trkpt>
      <trkpt lat="43.90878" lon="3.17792">
        <ele>741.3</ele>
        <time>2021-08-17T07:00:41Z</time>
      </trkpt>
      <trkpt lat="43.90858" lon="3.17653">
        <ele>748</ele>
        <time>2021-08-17T07:03:28Z</time>
      </trkpt>
      <trkpt lat="43.90742" lon="3.17597">
        <ele>746</ele>
        <time>2021-08-17T07:03:43Z</time>
      </trkpt>
      <trkpt lat="43.9065" lon="3.17551">
        <ele>743.5</ele>
        <time>2021-08-17T07:03:53Z</time>
      </trkpt>
      <trkpt lat="43.90556" lon="3.17519">
        <ele>741.5</ele>
        <time>2021-08-17T07:04:03Z</time>
      </trkpt>
      <trkpt lat="43.90458" lon="3.175">
        <ele>739.1</ele>
        <time>2021-08-17T07:04:13Z</time>
      </trkpt>
      <trkpt lat="43.90335" lon="3.17527">
        <ele>735.9</ele>
        <time>2021-08-17T07:04:23Z</time>
      </trkpt>
      <trkpt lat="43.90224" lon="3.17598">
        <ele>731.1</ele>
        <time>2021-08-17T07:04:33Z</time>
      </trkpt>
      <trkpt lat="43.90331" lon="3.1759">
        <ele>709.1</ele>
        <time>2021-08-17T07:04:58Z</time>
      </trkpt>
      <trkpt lat="43.90444" lon="3.17604">
        <ele>699.8</ele>
        <time>2021-08-17T07:05:08Z</time>
      </trkpt>
      <trkpt lat="43.9055" lon="3.17642">
        <ele>689</ele>
        <time>2021-08-17T07:05:18Z</time>
      </trkpt>
      <trkpt lat="43.9045" lon="3.17692">
        <ele>669.8</ele>
        <time>2021-08-17T07:05:38Z</time>
      </trkpt>
      <trkpt lat="43.90363" lon="3.17747">
        <ele>660.4</ele>
        <time>2021-08-17T07:05:48Z</time>
      </trkpt>
      <trkpt lat="43.90328" lon="3.17871">
        <ele>641</ele>
        <time>2021-08-17T07:06:08Z</time>
      </trkpt>
      <trkpt lat="43.90229" lon="3.17865">
        <ele>621.4</ele>
        <time>2021-08-17T07:06:33Z</time>
      </trkpt>
      <trkpt lat="43.90139" lon="3.17883">
        <ele>608.7</ele>
        <time>2021-08-17T07:06:53Z</time>
      </trkpt>
      <trkpt lat="43.90045" lon="3.17859">
        <ele>602.9</ele>
        <time>2021-08-17T07:07:13Z</time>
      </trkpt>
      <trkpt lat="43.89933" lon="3.1784">
        <ele>593.9</ele>
        <time>2021-08-17T07:07:33Z</time>
      </trkpt>
      <trkpt lat="43.89837" lon="3.17819">
        <ele>592.5</ele>
        <time>2021-08-17T07:07:48Z</time>
      </trkpt>
      <trkpt lat="43.89782" lon="3.177">
        <ele>594.1</ele>
        <time>2021-08-17T07:08:03Z</time>
      </trkpt>
      <trkpt lat="43.89765" lon="3.17561">
        <ele>599.8</ele>
        <time>2021-08-17T07:08:23Z</time>
      </trkpt>
      <trkpt lat="43.89747" lon="3.17435">
        <ele>605.7</ele>
        <time>2021-08-17T07:08:43Z</time>
      </trkpt>
      <trkpt lat="43.89697" lon="3.17315">
        <ele>610.6</ele>
        <time>2021-08-17T07:09:03Z</time>
      </trkpt>
      <trkpt lat="43.89609" lon="3.17257">
        <ele>613.2</ele>
        <time>2021-08-17T07:09:18Z</time>
      </trkpt>
      <trkpt lat="43.89567" lon="3.17123">
        <ele>610.1</ele>
        <time>2021-08-17T07:09:33Z</time>
      </trkpt>
      <trkpt lat="43.89527" lon="3.17001">
        <ele>606.6</ele>
        <time>2021-08-17T07:09:43Z</time>
      </trkpt>
      <trkpt lat="43.89448" lon="3.16922">
        <ele>603.3</ele>
        <time>2021-08-17T07:09:53Z</time>
      </trkpt>
      <trkpt lat="43.89338" lon="3.16922">
        <ele>599.7</ele>
        <time>2021-08-17T07:10:03Z</time>
      </trkpt>
      <trkpt lat="43.8926" lon="3.16846">
        <ele>596.5</ele>
        <time>2021-08-17T07:10:13Z</time>
      </trkpt>
      <trkpt lat="43.89246" lon="3.16666">
        <ele>590.1</ele>
        <time>2021-08-17T07:10:28Z</time>
      </trkpt>
      <trkpt lat="43.89215" lon="3.16542">
        <ele>586.1</ele>
        <time>2021-08-17T07:10:38Z</time>
      </trkpt>
      <trkpt lat="43.89182" lon="3.16411">
        <ele>580.8</ele>
        <time>2021-08-17T07:10:48Z</time>
      </trkpt>
      <trkpt lat="43.8912" lon="3.16271">
        <ele>572.5</ele>
        <time>2021-08-17T07:11:03Z</time>
      </trkpt>
      <trkpt lat="43.89081" lon="3.16128">
        <ele>562.4</ele>
        <time>2021-08-17T07:11:23Z</time>
      </trkpt>
      <trkpt lat="43.89083" lon="3.15992">
        <ele>555.1</ele>
        <time>2021-08-17T07:11:38Z</time>
      </trkpt>
      <trkpt lat="43.89088" lon="3.15828">
        <ele>548.2</ele>
        <time>2021-08-17T07:11:53Z</time>
      </trkpt>
      <trkpt lat="43.89075" lon="3.15665">
        <ele>539.7</ele>
        <time>2021-08-17T07:12:08Z</time>
      </trkpt>
      <trkpt lat="43.89054" lon="3.15497">
        <ele>529.4</ele>
        <time>2021-08-17T07:12:23Z</time>
      </trkpt>
      <trkpt lat="43.89018" lon="3.15344">
        <ele>520.6</ele>
        <time>2021-08-17T07:12:38Z</time>
      </trkpt>
      <trkpt lat="43.88958" lon="3.15235">
        <ele>509</ele>
        <time>2021-08-17T07:12:58Z</time>
      </trkpt>
      <trkpt lat="43.88876" lon="3.15132">
        <ele>498.9</ele>
        <time>2021-08-17T07:13:23Z</time>
      </trkpt>
      <trkpt lat="43.88781" lon="3.15011">
        <ele>493.3</ele>
        <time>2021-08-17T07:13:43Z</time>
      </trkpt>
      <trkpt lat="43.8866" lon="3.14958">
        <ele>490.2</ele>
        <time>2021-08-17T07:13:58Z</time>
      </trkpt>
      <trkpt lat="43.8853" lon="3.14914">
        <ele>487.1</ele>
        <time>2021-08-17T07:14:13Z</time>
      </trkpt>
      <trkpt lat="43.88432" lon="3.1485">
        <ele>484.2</ele>
        <time>2021-08-17T07:14:28Z</time>
      </trkpt>
      <trkpt lat="43.88335" lon="3.14812">
        <ele>477.6</ele>
        <time>2021-08-17T07:14:53Z</time>
      </trkpt>
      <trkpt lat="43.88318" lon="3.14683">
        <ele>478.5</ele>
        <time>2021-08-17T07:15:13Z</time>
      </trkpt>
      <trkpt lat="43.88346" lon="3.14559">
        <ele>478.9</ele>
        <time>2021-08-17T07:15:28Z</time>
      </trkpt>
      <trkpt lat="43.88328" lon="3.14422">
        <ele>477.4</ele>
        <time>2021-08-17T07:15:43Z</time>
      </trkpt>
      <trkpt lat="43.88267" lon="3.14322">
        <ele>475.3</ele>
        <time>2021-08-17T07:15:58Z</time>
      </trkpt>
      <trkpt lat="43.88232" lon="3.14194">
        <ele>473.8</ele>
        <time>2021-08-17T07:16:18Z</time>
      </trkpt>
      <trkpt lat="43.8825" lon="3.14051">
        <ele>471.7</ele>
        <time>2021-08-17T07:16:38Z</time>
      </trkpt>
      <trkpt lat="43.88286" lon="3.13921">
        <ele>472.8</ele>
        <time>2021-08-17T07:16:58Z</time>
      </trkpt>
      <trkpt lat="43.88319" lon="3.1378">
        <ele>471</ele>
        <time>2021-08-17T07:17:18Z</time>
      </trkpt>
      <trkpt lat="43.88297" lon="3.13646">
        <ele>470.8</ele>
        <time>2021-08-17T07:17:33Z</time>
      </trkpt>
      <trkpt lat="43.88232" lon="3.13533">
        <ele>473.2</ele>
        <time>2021-08-17T07:17:48Z</time>
      </trkpt>
      <trkpt lat="43.88145" lon="3.13433">
        <ele>472.8</ele>
        <time>2021-08-17T07:18:03Z</time>
      </trkpt>
      <trkpt lat="43.88039" lon="3.1339">
        <ele>473.1</ele>
        <time>2021-08-17T07:18:18Z</time>
      </trkpt>
      <trkpt lat="43.87929" lon="3.1338">
        <ele>473.4</ele>
        <time>2021-08-17T07:18:33Z</time>
      </trkpt>
      <trkpt lat="43.8783" lon="3.13339">
        <ele>472.3</ele>
        <time>2021-08-17T07:18:48Z</time>
      </trkpt>
      <trkpt lat="43.87744" lon="3.13266">
        <ele>472.1</ele>
        <time>2021-08-17T07:19:03Z</time>
      </trkpt>
      <trkpt lat="43.87673" lon="3.13134">
        <ele>471.3</ele>
        <time>2021-08-17T07:19:23Z</time>
      </trkpt>
      <trkpt lat="43.8761" lon="3.13019">
        <ele>471.2</ele>
        <time>2021-08-17T07:19:43Z</time>
      </trkpt>
      <trkpt lat="43.87588" lon="3.12868">
        <ele>473</ele>
        <time>2021-08-17T07:20:08Z</time>
      </trkpt>
      <trkpt lat="43.87622" lon="3.12723">
        <ele>473.6</ele>
        <time>2021-08-17T07:20:28Z</time>
      </trkpt>
      <trkpt lat="43.87641" lon="3.12601">
        <ele>474.2</ele>
        <time>2021-08-17T07:20:43Z</time>
      </trkpt>
      <trkpt lat="43.87654" lon="3.12453">
        <ele>476.2</ele>
        <time>2021-08-17T07:21:03Z</time>
      </trkpt>
      <trkpt lat="43.87644" lon="3.12319">
        <ele>478.3</ele>
        <time>2021-08-17T07:21:28Z</time>
      </trkpt>
      <trkpt lat="43.87719" lon="3.12252">
        <ele>492.3</ele>
        <time>2021-08-17T07:26:32Z</time>
      </trkpt>
      <trkpt lat="43.87815" lon="3.12256">
        <ele>490.6</ele>
        <time>2021-08-17T07:26:52Z</time>
      </trkpt>
      <trkpt lat="43.87904" lon="3.12197">
        <ele>483.9</ele>
        <time>2021-08-17T07:27:17Z</time>
      </trkpt>
      <trkpt lat="43.87997" lon="3.12156">
        <ele>478.7</ele>
        <time>2021-08-17T07:27:37Z</time>
      </trkpt>
      <trkpt lat="43.8809" lon="3.12078">
        <ele>470.2</ele>
        <time>2021-08-17T07:28:02Z</time>
      </trkpt>
      <trkpt lat="43.88182" lon="3.1203">
        <ele>460.4</ele>
        <time>2021-08-17T07:28:32Z</time>
      </trkpt>
      <trkpt lat="43.88282" lon="3.11998">
        <ele>449.2</ele>
        <time>2021-08-17T07:29:07Z</time>
      </trkpt>
      <trkpt lat="43.88372" lon="3.11981">
        <ele>446.9</ele>
        <time>2021-08-17T07:29:37Z</time>
      </trkpt>
      <trkpt lat="43.88479" lon="3.11983">
        <ele>453.4</ele>
        <time>2021-08-17T07:30:07Z</time>
      </trkpt>
      <trkpt lat="43.88558" lon="3.1192">
        <ele>462.8</ele>
        <time>2021-08-17T07:30:32Z</time>
      </trkpt>
      <trkpt lat="43.88644" lon="3.11849">
        <ele>464.4</ele>
        <time>2021-08-17T07:31:02Z</time>
      </trkpt>
      <trkpt lat="43.88727" lon="3.11778">
        <ele>468</ele>
        <time>2021-08-17T07:31:32Z</time>
      </trkpt>
      <trkpt lat="43.88821" lon="3.1173">
        <ele>466.9</ele>
        <time>2021-08-17T07:32:02Z</time>
      </trkpt>
      <trkpt lat="43.8891" lon="3.11657">
        <ele>465.4</ele>
        <time>2021-08-17T07:32:32Z</time>
      </trkpt>
      <trkpt lat="43.88986" lon="3.11591">
        <ele>466.4</ele>
        <time>2021-08-17T07:33:02Z</time>
      </trkpt>
      <trkpt lat="43.89062" lon="3.11512">
        <ele>478.1</ele>
        <time>2021-08-17T07:33:37Z</time>
      </trkpt>
      <trkpt lat="43.89124" lon="3.11407">
        <ele>486</ele>
        <time>2021-08-17T07:34:17Z</time>
      </trkpt>
      <trkpt lat="43.89181" lon="3.11299">
        <ele>500.3</ele>
        <time>2021-08-17T07:35:02Z</time>
      </trkpt>
      <trkpt lat="43.89251" lon="3.11202">
        <ele>502.5</ele>
        <time>2021-08-17T07:35:49Z</time>
      </trkpt>
      <trkpt lat="43.89304" lon="3.11099">
        <ele>507.1</ele>
        <time>2021-08-17T07:36:09Z</time>
      </trkpt>
      <trkpt lat="43.89391" lon="3.11041">
        <ele>511.8</ele>
        <time>2021-08-17T07:36:29Z</time>
      </trkpt>
      <trkpt lat="43.89492" lon="3.11043">
        <ele>518.5</ele>
        <time>2021-08-17T07:36:59Z</time>
      </trkpt>
      <trkpt lat="43.89582" lon="3.11014">
        <ele>542</ele>
        <time>2021-08-17T07:37:39Z</time>
      </trkpt>
      <trkpt lat="43.89675" lon="3.10985">
        <ele>554</ele>
        <time>2021-08-17T07:38:24Z</time>
      </trkpt>
      <trkpt lat="43.89743" lon="3.10906">
        <ele>555</ele>
        <time>2021-08-17T07:38:59Z</time>
      </trkpt>
      <trkpt lat="43.89808" lon="3.10812">
        <ele>555.7</ele>
        <time>2021-08-17T07:39:51Z</time>
      </trkpt>
      <trkpt lat="43.89851" lon="3.10686">
        <ele>556.8</ele>
        <time>2021-08-17T07:45:46Z</time>
      </trkpt>
      <trkpt lat="43.89889" lon="3.10567">
        <ele>557.1</ele>
        <time>2021-08-17T07:46:11Z</time>
      </trkpt>
      <trkpt lat="43.89887" lon="3.10435">
        <ele>563.7</ele>
        <time>2021-08-17T07:46:56Z</time>
      </trkpt>
      <trkpt lat="43.89905" lon="3.1031">
        <ele>566.4</ele>
        <time>2021-08-17T07:47:43Z</time>
      </trkpt>
      <trkpt lat="43.89951" lon="3.10189">
        <ele>572.1</ele>
        <time>2021-08-17T07:48:39Z</time>
      </trkpt>
      <trkpt lat="43.8999" lon="3.10077">
        <ele>576.7</ele>
        <time>2021-08-17T07:49:33Z</time>
      </trkpt>
      <trkpt lat="43.90016" lon="3.09958">
        <ele>583.3</ele>
        <time>2021-08-17T07:50:26Z</time>
      </trkpt>
      <trkpt lat="43.90036" lon="3.09832">
        <ele>596.4</ele>
        <time>2021-08-17T07:51:18Z</time>
      </trkpt>
      <trkpt lat="43.90095" lon="3.09734">
        <ele>597.3</ele>
        <time>2021-08-17T07:51:58Z</time>
      </trkpt>
      <trkpt lat="43.90131" lon="3.09602">
        <ele>596.1</ele>
        <time>2021-08-17T07:52:33Z</time>
      </trkpt>
      <trkpt lat="43.90167" lon="3.0948">
        <ele>593</ele>
        <time>2021-08-17T07:53:03Z</time>
      </trkpt>
      <trkpt lat="43.90219" lon="3.09362">
        <ele>602.6</ele>
        <time>2021-08-17T07:53:38Z</time>
      </trkpt>
      <trkpt lat="43.90264" lon="3.09236">
        <ele>606.2</ele>
        <time>2021-08-17T07:54:23Z</time>
      </trkpt>
      <trkpt lat="43.90306" lon="3.09115">
        <ele>611.9</ele>
        <time>2021-08-17T07:55:08Z</time>
      </trkpt>
      <trkpt lat="43.90343" lon="3.08997">
        <ele>610.6</ele>
        <time>2021-08-17T07:55:48Z</time>
      </trkpt>
      <trkpt lat="43.90385" lon="3.08886">
        <ele>614.7</ele>
        <time>2021-08-17T07:56:33Z</time>
      </trkpt>
      <trkpt lat="43.90441" lon="3.08786">
        <ele>613.3</ele>
        <time>2021-08-17T07:57:19Z</time>
      </trkpt>
      <trkpt lat="43.90491" lon="3.08684">
        <ele>615.5</ele>
        <time>2021-08-17T07:57:59Z</time>
      </trkpt>
      <trkpt lat="43.9048" lon="3.08526">
        <ele>621.7</ele>
        <time>2021-08-17T07:58:24Z</time>
      </trkpt>
      <trkpt lat="43.90528" lon="3.08377">
        <ele>616.4</ele>
        <time>2021-08-17T07:58:44Z</time>
      </trkpt>
      <trkpt lat="43.90579" lon="3.08268">
        <ele>610.9</ele>
        <time>2021-08-17T07:58:59Z</time>
      </trkpt>
      <trkpt lat="43.90624" lon="3.0816">
        <ele>607.4</ele>
        <time>2021-08-17T07:59:14Z</time>
      </trkpt>
      <trkpt lat="43.90671" lon="3.08051">
        <ele>603.4</ele>
        <time>2021-08-17T07:59:29Z</time>
      </trkpt>
      <trkpt lat="43.9071" lon="3.0794">
        <ele>600.2</ele>
        <time>2021-08-17T07:59:44Z</time>
      </trkpt>
      <trkpt lat="43.90732" lon="3.07819">
        <ele>596.6</ele>
        <time>2021-08-17T07:59:59Z</time>
      </trkpt>
      <trkpt lat="43.90773" lon="3.07702">
        <ele>590.5</ele>
        <time>2021-08-17T08:00:14Z</time>
      </trkpt>
      <trkpt lat="43.90799" lon="3.07579">
        <ele>587.8</ele>
        <time>2021-08-17T08:00:34Z</time>
      </trkpt>
      <trkpt lat="43.90836" lon="3.07461">
        <ele>584.4</ele>
        <time>2021-08-17T08:00:54Z</time>
      </trkpt>
      <trkpt lat="43.90864" lon="3.07329">
        <ele>581.5</ele>
        <time>2021-08-17T08:01:19Z</time>
      </trkpt>
      <trkpt lat="43.90886" lon="3.07186">
        <ele>580.3</ele>
        <time>2021-08-17T08:01:49Z</time>
      </trkpt>
      <trkpt lat="43.90925" lon="3.0703">
        <ele>581.6</ele>
        <time>2021-08-17T08:02:14Z</time>
      </trkpt>
      <trkpt lat="43.90973" lon="3.06887">
        <ele>581.6</ele>
        <time>2021-08-17T08:02:29Z</time>
      </trkpt>
      <trkpt lat="43.91023" lon="3.06739">
        <ele>580.5</ele>
        <time>2021-08-17T08:02:44Z</time>
      </trkpt>
      <trkpt lat="43.91062" lon="3.06627">
        <ele>582.3</ele>
        <time>2021-08-17T08:03:04Z</time>
      </trkpt>
      <trkpt lat="43.91114" lon="3.0649">
        <ele>576.4</ele>
        <time>2021-08-17T08:03:24Z</time>
      </trkpt>
      <trkpt lat="43.91147" lon="3.0636">
        <ele>571.7</ele>
        <time>2021-08-17T08:03:39Z</time>
      </trkpt>
      <trkpt lat="43.91167" lon="3.06224">
        <ele>567.9</ele>
        <time>2021-08-17T08:03:54Z</time>
      </trkpt>
      <trkpt lat="43.91215" lon="3.06117">
        <ele>564.5</ele>
        <time>2021-08-17T08:04:09Z</time>
      </trkpt>
      <trkpt lat="43.91288" lon="3.06008">
        <ele>560.6</ele>
        <time>2021-08-17T08:04:24Z</time>
      </trkpt>
      <trkpt lat="43.91302" lon="3.05864">
        <ele>555.3</ele>
        <time>2021-08-17T08:04:39Z</time>
      </trkpt>
      <trkpt lat="43.91339" lon="3.05733">
        <ele>550.6</ele>
        <time>2021-08-17T08:05:09Z</time>
      </trkpt>
      <trkpt lat="43.91389" lon="3.05598">
        <ele>550.2</ele>
        <time>2021-08-17T08:05:29Z</time>
      </trkpt>
      <trkpt lat="43.91453" lon="3.05481">
        <ele>546.4</ele>
        <time>2021-08-17T08:05:44Z</time>
      </trkpt>
      <trkpt lat="43.91546" lon="3.054">
        <ele>538.5</ele>
        <time>2021-08-17T08:05:59Z</time>
      </trkpt>
      <trkpt lat="43.91601" lon="3.05289">
        <ele>532.4</ele>
        <time>2021-08-17T08:06:14Z</time>
      </trkpt>
      <trkpt lat="43.91663" lon="3.05171">
        <ele>530.2</ele>
        <time>2021-08-17T08:06:29Z</time>
      </trkpt>
      <trkpt lat="43.91742" lon="3.05109">
        <ele>525.8</ele>
        <time>2021-08-17T08:06:39Z</time>
      </trkpt>
      <trkpt lat="43.91864" lon="3.05074">
        <ele>517.6</ele>
        <time>2021-08-17T08:06:54Z</time>
      </trkpt>
      <trkpt lat="43.91986" lon="3.05145">
        <ele>509.7</ele>
        <time>2021-08-17T08:07:09Z</time>
      </trkpt>
      <trkpt lat="43.92017" lon="3.05293">
        <ele>504</ele>
        <time>2021-08-17T08:07:24Z</time>
      </trkpt>
      <trkpt lat="43.92117" lon="3.05361">
        <ele>497.6</ele>
        <time>2021-08-17T08:07:39Z</time>
      </trkpt>
      <trkpt lat="43.92157" lon="3.05249">
        <ele>495.2</ele>
        <time>2021-08-17T08:07:54Z</time>
      </trkpt>
      <trkpt lat="43.92218" lon="3.05151">
        <ele>489.6</ele>
        <time>2021-08-17T08:08:14Z</time>
      </trkpt>
      <trkpt lat="43.9232" lon="3.05238">
        <ele>489.7</ele>
        <time>2021-08-17T08:08:34Z</time>
      </trkpt>
      <trkpt lat="43.92421" lon="3.0525">
        <ele>486.5</ele>
        <time>2021-08-17T08:08:54Z</time>
      </trkpt>
      <trkpt lat="43.9251" lon="3.05218">
        <ele>485.3</ele>
        <time>2021-08-17T08:09:19Z</time>
      </trkpt>
      <trkpt lat="43.92612" lon="3.05172">
        <ele>490</ele>
        <time>2021-08-17T08:09:49Z</time>
      </trkpt>
      <trkpt lat="43.92684" lon="3.05072">
        <ele>496.4</ele>
        <time>2021-08-17T08:10:19Z</time>
      </trkpt>
      <trkpt lat="43.92752" lon="3.04978">
        <ele>504.8</ele>
        <time>2021-08-17T08:10:59Z</time>
      </trkpt>
      <trkpt lat="43.92807" lon="3.04881">
        <ele>509.1</ele>
        <time>2021-08-17T08:11:40Z</time>
      </trkpt>
      <trkpt lat="43.92855" lon="3.04778">
        <ele>508.1</ele>
        <time>2021-08-17T08:12:20Z</time>
      </trkpt>
      <trkpt lat="43.92905" lon="3.04664">
        <ele>513.1</ele>
        <time>2021-08-17T08:13:01Z</time>
      </trkpt>
      <trkpt lat="43.92952" lon="3.04557">
        <ele>515.6</ele>
        <time>2021-08-17T08:13:41Z</time>
      </trkpt>
      <trkpt lat="43.92998" lon="3.04435">
        <ele>523.6</ele>
        <time>2021-08-17T08:14:26Z</time>
      </trkpt>
      <trkpt lat="43.93023" lon="3.04313">
        <ele>526.6</ele>
        <time>2021-08-17T08:15:06Z</time>
      </trkpt>
      <trkpt lat="43.9305" lon="3.04189">
        <ele>529.5</ele>
        <time>2021-08-17T08:15:46Z</time>
      </trkpt>
      <trkpt lat="43.93101" lon="3.04076">
        <ele>534.4</ele>
        <time>2021-08-17T08:16:32Z</time>
      </trkpt>
      <trkpt lat="43.9316" lon="3.03978">
        <ele>541.8</ele>
        <time>2021-08-17T08:17:20Z</time>
      </trkpt>
      <trkpt lat="43.93191" lon="3.03856">
        <ele>548</ele>
        <time>2021-08-17T08:18:08Z</time>
      </trkpt>
      <trkpt lat="43.93207" lon="3.03722">
        <ele>557.7</ele>
        <time>2021-08-17T08:18:56Z</time>
      </trkpt>
      <trkpt lat="43.93182" lon="3.0359">
        <ele>564.2</ele>
        <time>2021-08-17T08:19:44Z</time>
      </trkpt>
      <trkpt lat="43.93153" lon="3.03463">
        <ele>569.8</ele>
        <time>2021-08-17T08:20:39Z</time>
      </trkpt>
      <trkpt lat="43.93161" lon="3.03339">
        <ele>567.7</ele>
        <time>2021-08-17T08:21:24Z</time>
      </trkpt>
      <trkpt lat="43.93118" lon="3.03216">
        <ele>571.2</ele>
        <time>2021-08-17T08:22:04Z</time>
      </trkpt>
      <trkpt lat="43.93064" lon="3.0309">
        <ele>573.3</ele>
        <time>2021-08-17T08:22:34Z</time>
      </trkpt>
      <trkpt lat="43.93017" lon="3.02973">
        <ele>576.1</ele>
        <time>2021-08-17T08:22:59Z</time>
      </trkpt>
      <trkpt lat="43.92984" lon="3.02842">
        <ele>576.5</ele>
        <time>2021-08-17T08:23:24Z</time>
      </trkpt>
      <trkpt lat="43.92993" lon="3.02707">
        <ele>567.6</ele>
        <time>2021-08-17T08:23:54Z</time>
      </trkpt>
      <trkpt lat="43.93004" lon="3.02569">
        <ele>565.9</ele>
        <time>2021-08-17T08:24:24Z</time>
      </trkpt>
      <trkpt lat="43.93016" lon="3.02428">
        <ele>566.7</ele>
        <time>2021-08-17T08:24:54Z</time>
      </trkpt>
      <trkpt lat="43.9303" lon="3.02304">
        <ele>565.6</ele>
        <time>2021-08-17T08:25:19Z</time>
      </trkpt>
      <trkpt lat="43.93049" lon="3.02167">
        <ele>563.3</ele>
        <time>2021-08-17T08:25:44Z</time>
      </trkpt>
      <trkpt lat="43.93071" lon="3.02031">
        <ele>559.6</ele>
        <time>2021-08-17T08:26:04Z</time>
      </trkpt>
      <trkpt lat="43.93097" lon="3.01879">
        <ele>559.8</ele>
        <time>2021-08-17T08:26:24Z</time>
      </trkpt>
      <trkpt lat="43.93123" lon="3.01725">
        <ele>556.4</ele>
        <time>2021-08-17T08:26:44Z</time>
      </trkpt>
      <trkpt lat="43.93224" lon="3.01663">
        <ele>551.6</ele>
        <time>2021-08-17T08:27:09Z</time>
      </trkpt>
      <trkpt lat="43.9332" lon="3.01612">
        <ele>544.6</ele>
        <time>2021-08-17T08:27:34Z</time>
      </trkpt>
      <trkpt lat="43.93387" lon="3.01516">
        <ele>544.4</ele>
        <time>2021-08-17T08:27:59Z</time>
      </trkpt>
      <trkpt lat="43.93454" lon="3.0142">
        <ele>547.9</ele>
        <time>2021-08-17T08:28:29Z</time>
      </trkpt>
      <trkpt lat="43.93552" lon="3.0146">
        <ele>547.3</ele>
        <time>2021-08-17T08:28:54Z</time>
      </trkpt>
      <trkpt lat="43.93644" lon="3.01479">
        <ele>550.3</ele>
        <time>2021-08-17T08:29:14Z</time>
      </trkpt>
      <trkpt lat="43.93718" lon="3.014">
        <ele>551.7</ele>
        <time>2021-08-17T08:29:39Z</time>
      </trkpt>
      <trkpt lat="43.93766" lon="3.01279">
        <ele>556.9</ele>
        <time>2021-08-17T08:30:09Z</time>
      </trkpt>
      <trkpt lat="43.93814" lon="3.01149">
        <ele>553.5</ele>
        <time>2021-08-17T08:30:44Z</time>
      </trkpt>
      <trkpt lat="43.93862" lon="3.01041">
        <ele>553.6</ele>
        <time>2021-08-17T08:31:09Z</time>
      </trkpt>
      <trkpt lat="43.93926" lon="3.00946">
        <ele>555.8</ele>
        <time>2021-08-17T08:31:29Z</time>
      </trkpt>
      <trkpt lat="43.94002" lon="3.00837">
        <ele>552.3</ele>
        <time>2021-08-17T08:31:54Z</time>
      </trkpt>
      <trkpt lat="43.94071" lon="3.00744">
        <ele>550.3</ele>
        <time>2021-08-17T08:32:14Z</time>
      </trkpt>
      <trkpt lat="43.94146" lon="3.00665">
        <ele>550.7</ele>
        <time>2021-08-17T08:32:34Z</time>
      </trkpt>
      <trkpt lat="43.94221" lon="3.00582">
        <ele>550.1</ele>
        <time>2021-08-17T08:32:54Z</time>
      </trkpt>
      <trkpt lat="43.9429" lon="3.0047">
        <ele>547.5</ele>
        <time>2021-08-17T08:58:35Z</time>
      </trkpt>
      <trkpt lat="43.9434" lon="3.00365">
        <ele>541.6</ele>
        <time>2021-08-17T08:58:55Z</time>
      </trkpt>
      <trkpt lat="43.94398" lon="3.00249">
        <ele>539.4</ele>
        <time>2021-08-17T08:59:15Z</time>
      </trkpt>
      <trkpt lat="43.94425" lon="3.00125">
        <ele>538.3</ele>
        <time>2021-08-17T08:59:35Z</time>
      </trkpt>
      <trkpt lat="43.94467" lon="3.00016">
        <ele>537.7</ele>
        <time>2021-08-17T09:00:00Z</time>
      </trkpt>
      <trkpt lat="43.94507" lon="2.999">
        <ele>541.8</ele>
        <time>2021-08-17T09:00:52Z</time>
      </trkpt>
      <trkpt lat="43.94519" lon="2.99749">
        <ele>541.5</ele>
        <time>2021-08-17T09:01:27Z</time>
      </trkpt>
      <trkpt lat="43.94496" lon="2.99619">
        <ele>540.6</ele>
        <time>2021-08-17T09:01:52Z</time>
      </trkpt>
      <trkpt lat="43.94455" lon="2.99487">
        <ele>539</ele>
        <time>2021-08-17T09:02:22Z</time>
      </trkpt>
      <trkpt lat="43.94422" lon="2.99341">
        <ele>539.1</ele>
        <time>2021-08-17T09:02:52Z</time>
      </trkpt>
      <trkpt lat="43.94418" lon="2.99209">
        <ele>545.4</ele>
        <time>2021-08-17T09:03:12Z</time>
      </trkpt>
      <trkpt lat="43.94421" lon="2.99054">
        <ele>540.4</ele>
        <time>2021-08-17T09:03:32Z</time>
      </trkpt>
      <trkpt lat="43.94416" lon="2.98905">
        <ele>534.3</ele>
        <time>2021-08-17T09:03:47Z</time>
      </trkpt>
      <trkpt lat="43.9444" lon="2.98772">
        <ele>528.7</ele>
        <time>2021-08-17T09:04:02Z</time>
      </trkpt>
      <trkpt lat="43.94489" lon="2.9866">
        <ele>522.6</ele>
        <time>2021-08-17T09:04:17Z</time>
      </trkpt>
      <trkpt lat="43.94576" lon="2.98554">
        <ele>516.6</ele>
        <time>2021-08-17T09:04:32Z</time>
      </trkpt>
      <trkpt lat="43.94673" lon="2.98462">
        <ele>514.4</ele>
        <time>2021-08-17T09:04:47Z</time>
      </trkpt>
      <trkpt lat="43.94762" lon="2.98377">
        <ele>507.8</ele>
        <time>2021-08-17T09:05:02Z</time>
      </trkpt>
      <trkpt lat="43.94838" lon="2.98303">
        <ele>507.4</ele>
        <time>2021-08-17T09:05:17Z</time>
      </trkpt>
      <trkpt lat="43.94896" lon="2.98188">
        <ele>501.1</ele>
        <time>2021-08-17T09:05:37Z</time>
      </trkpt>
      <trkpt lat="43.94898" lon="2.98051">
        <ele>500.9</ele>
        <time>2021-08-17T09:07:01Z</time>
      </trkpt>
      <trkpt lat="43.94889" lon="2.97909">
        <ele>499</ele>
        <time>2021-08-17T09:07:26Z</time>
      </trkpt>
      <trkpt lat="43.94921" lon="2.97786">
        <ele>494.9</ele>
        <time>2021-08-17T09:07:46Z</time>
      </trkpt>
      <trkpt lat="43.94985" lon="2.97685">
        <ele>491.4</ele>
        <time>2021-08-17T09:08:06Z</time>
      </trkpt>
      <trkpt lat="43.95038" lon="2.97553">
        <ele>487.5</ele>
        <time>2021-08-17T09:08:26Z</time>
      </trkpt>
      <trkpt lat="43.95082" lon="2.97436">
        <ele>487.5</ele>
        <time>2021-08-17T09:08:41Z</time>
      </trkpt>
      <trkpt lat="43.95124" lon="2.97325">
        <ele>491.9</ele>
        <time>2021-08-17T09:08:56Z</time>
      </trkpt>
      <trkpt lat="43.9516" lon="2.97186">
        <ele>487.6</ele>
        <time>2021-08-17T09:09:41Z</time>
      </trkpt>
      <trkpt lat="43.95155" lon="2.97032">
        <ele>483.6</ele>
        <time>2021-08-17T09:10:01Z</time>
      </trkpt>
      <trkpt lat="43.95129" lon="2.96877">
        <ele>478.1</ele>
        <time>2021-08-17T09:10:21Z</time>
      </trkpt>
      <trkpt lat="43.9511" lon="2.96747">
        <ele>473.6</ele>
        <time>2021-08-17T09:10:36Z</time>
      </trkpt>
      <trkpt lat="43.95105" lon="2.96614">
        <ele>468.6</ele>
        <time>2021-08-17T09:10:51Z</time>
      </trkpt>
      <trkpt lat="43.95118" lon="2.96477">
        <ele>463.6</ele>
        <time>2021-08-17T09:11:06Z</time>
      </trkpt>
      <trkpt lat="43.95163" lon="2.96325">
        <ele>458.5</ele>
        <time>2021-08-17T09:11:26Z</time>
      </trkpt>
      <trkpt lat="43.95193" lon="2.96207">
        <ele>455.8</ele>
        <time>2021-08-17T09:11:41Z</time>
      </trkpt>
      <trkpt lat="43.95234" lon="2.96072">
        <ele>452.6</ele>
        <time>2021-08-17T09:12:01Z</time>
      </trkpt>
      <trkpt lat="43.95254" lon="2.95927">
        <ele>446</ele>
        <time>2021-08-17T09:12:21Z</time>
      </trkpt>
      <trkpt lat="43.9529" lon="2.95797">
        <ele>441.6</ele>
        <time>2021-08-17T09:12:41Z</time>
      </trkpt>
      <trkpt lat="43.95338" lon="2.95654">
        <ele>437.9</ele>
        <time>2021-08-17T09:13:01Z</time>
      </trkpt>
      <trkpt lat="43.95373" lon="2.95534">
        <ele>435.9</ele>
        <time>2021-08-17T09:13:16Z</time>
      </trkpt>
      <trkpt lat="43.95422" lon="2.95426">
        <ele>433.7</ele>
        <time>2021-08-17T09:13:31Z</time>
      </trkpt>
      <trkpt lat="43.95468" lon="2.9531">
        <ele>433.3</ele>
        <time>2021-08-17T09:13:46Z</time>
      </trkpt>
      <trkpt lat="43.95514" lon="2.95174">
        <ele>432.5</ele>
        <time>2021-08-17T09:14:06Z</time>
      </trkpt>
      <trkpt lat="43.95542" lon="2.95056">
        <ele>430.2</ele>
        <time>2021-08-17T09:14:21Z</time>
      </trkpt>
      <trkpt lat="43.95574" lon="2.94934">
        <ele>430.6</ele>
        <time>2021-08-17T09:14:36Z</time>
      </trkpt>
      <trkpt lat="43.95605" lon="2.94805">
        <ele>430.9</ele>
        <time>2021-08-17T09:14:51Z</time>
      </trkpt>
      <trkpt lat="43.95578" lon="2.94684">
        <ele>426.6</ele>
        <time>2021-08-17T09:15:11Z</time>
      </trkpt>
      <trkpt lat="43.95526" lon="2.94572">
        <ele>423.3</ele>
        <time>2021-08-17T09:15:36Z</time>
      </trkpt>
      <trkpt lat="43.95498" lon="2.9445">
        <ele>427.7</ele>
        <time>2021-08-17T09:16:01Z</time>
      </trkpt>
      <trkpt lat="43.95495" lon="2.94324">
        <ele>434.1</ele>
        <time>2021-08-17T09:16:31Z</time>
      </trkpt>
      <trkpt lat="43.95477" lon="2.94196">
        <ele>437.2</ele>
        <time>2021-08-17T09:18:13Z</time>
      </trkpt>
      <trkpt lat="43.95463" lon="2.94058">
        <ele>437</ele>
        <time>2021-08-17T09:18:38Z</time>
      </trkpt>
      <trkpt lat="43.95501" lon="2.93942">
        <ele>438.9</ele>
        <time>2021-08-17T09:18:58Z</time>
      </trkpt>
      <trkpt lat="43.95551" lon="2.93809">
        <ele>439.4</ele>
        <time>2021-08-17T09:19:18Z</time>
      </trkpt>
      <trkpt lat="43.95519" lon="2.93654">
        <ele>440.8</ele>
        <time>2021-08-17T09:19:38Z</time>
      </trkpt>
      <trkpt lat="43.9548" lon="2.93523">
        <ele>436.9</ele>
        <time>2021-08-17T09:19:58Z</time>
      </trkpt>
      <trkpt lat="43.95461" lon="2.93394">
        <ele>437.3</ele>
        <time>2021-08-17T09:20:18Z</time>
      </trkpt>
      <trkpt lat="43.95449" lon="2.93237">
        <ele>434.6</ele>
        <time>2021-08-17T09:20:38Z</time>
      </trkpt>
      <trkpt lat="43.95441" lon="2.93107">
        <ele>429.5</ele>
        <time>2021-08-17T09:20:53Z</time>
      </trkpt>
      <trkpt lat="43.95453" lon="2.92976">
        <ele>426.9</ele>
        <time>2021-08-17T09:21:08Z</time>
      </trkpt>
      <trkpt lat="43.95469" lon="2.92851">
        <ele>423.9</ele>
        <time>2021-08-17T09:21:23Z</time>
      </trkpt>
      <trkpt lat="43.95463" lon="2.92689">
        <ele>416</ele>
        <time>2021-08-17T09:21:43Z</time>
      </trkpt>
      <trkpt lat="43.95437" lon="2.92564">
        <ele>412.9</ele>
        <time>2021-08-17T09:21:58Z</time>
      </trkpt>
      <trkpt lat="43.9538" lon="2.92439">
        <ele>405</ele>
        <time>2021-08-17T09:22:18Z</time>
      </trkpt>
      <trkpt lat="43.95304" lon="2.92349">
        <ele>400.6</ele>
        <time>2021-08-17T09:23:35Z</time>
      </trkpt>
      <trkpt lat="43.95256" lon="2.92211">
        <ele>397.9</ele>
        <time>2021-08-17T09:23:55Z</time>
      </trkpt>
      <trkpt lat="43.95224" lon="2.92065">
        <ele>395.2</ele>
        <time>2021-08-17T09:24:15Z</time>
      </trkpt>
      <trkpt lat="43.95182" lon="2.91907">
        <ele>390.2</ele>
        <time>2021-08-17T09:24:35Z</time>
      </trkpt>
      <trkpt lat="43.95128" lon="2.91772">
        <ele>385.9</ele>
        <time>2021-08-17T09:24:55Z</time>
      </trkpt>
      <trkpt lat="43.95063" lon="2.91622">
        <ele>379</ele>
        <time>2021-08-17T09:25:15Z</time>
      </trkpt>
      <trkpt lat="43.95009" lon="2.91501">
        <ele>374.7</ele>
        <time>2021-08-17T09:25:30Z</time>
      </trkpt>
      <trkpt lat="43.94952" lon="2.91394">
        <ele>369.7</ele>
        <time>2021-08-17T09:25:45Z</time>
      </trkpt>
      <trkpt lat="43.94873" lon="2.91282">
        <ele>361.2</ele>
        <time>2021-08-17T09:26:05Z</time>
      </trkpt>
      <trkpt lat="43.94801" lon="2.91201">
        <ele>353.6</ele>
        <time>2021-08-17T09:26:30Z</time>
      </trkpt>
      <trkpt lat="43.94728" lon="2.91066">
        <ele>347.7</ele>
        <time>2021-08-17T09:26:55Z</time>
      </trkpt>
      <trkpt lat="43.94691" lon="2.90914">
        <ele>341</ele>
        <time>2021-08-17T09:27:15Z</time>
      </trkpt>
      <trkpt lat="43.94655" lon="2.90758">
        <ele>332.9</ele>
        <time>2021-08-17T09:27:35Z</time>
      </trkpt>
      <trkpt lat="43.94613" lon="2.90611">
        <ele>323.8</ele>
        <time>2021-08-17T09:28:00Z</time>
      </trkpt>
      <trkpt lat="43.94597" lon="2.90446">
        <ele>317</ele>
        <time>2021-08-17T09:28:20Z</time>
      </trkpt>
      <trkpt lat="43.94619" lon="2.9029">
        <ele>311.3</ele>
        <time>2021-08-17T09:28:40Z</time>
      </trkpt>
      <trkpt lat="43.94646" lon="2.90133">
        <ele>321.1</ele>
        <time>2021-08-17T09:29:00Z</time>
      </trkpt>
      <trkpt lat="43.94681" lon="2.89987">
        <ele>328.6</ele>
        <time>2021-08-17T09:29:20Z</time>
      </trkpt>
      <trkpt lat="43.9471" lon="2.89862">
        <ele>334.6</ele>
        <time>2021-08-17T09:29:40Z</time>
      </trkpt>
      <trkpt lat="43.94744" lon="2.89721">
        <ele>334.6</ele>
        <time>2021-08-17T09:30:16Z</time>
      </trkpt>
      <trkpt lat="43.94812" lon="2.89605">
        <ele>333.2</ele>
        <time>2021-08-17T09:30:36Z</time>
      </trkpt>
      <trkpt lat="43.94898" lon="2.89519">
        <ele>333.2</ele>
        <time>2021-08-17T09:30:56Z</time>
      </trkpt>
      <trkpt lat="43.94988" lon="2.89455">
        <ele>333.6</ele>
        <time>2021-08-17T09:31:21Z</time>
      </trkpt>
      <trkpt lat="43.95069" lon="2.89388">
        <ele>334.5</ele>
        <time>2021-08-17T09:31:51Z</time>
      </trkpt>
      <trkpt lat="43.95154" lon="2.89338">
        <ele>334.4</ele>
        <time>2021-08-17T09:33:19Z</time>
      </trkpt>
      <trkpt lat="43.95233" lon="2.8927">
        <ele>333.5</ele>
        <time>2021-08-17T09:33:44Z</time>
      </trkpt>
      <trkpt lat="43.9533" lon="2.89205">
        <ele>332.4</ele>
        <time>2021-08-17T09:34:25Z</time>
      </trkpt>
      <trkpt lat="43.95404" lon="2.89132">
        <ele>334.5</ele>
        <time>2021-08-17T09:34:50Z</time>
      </trkpt>
      <trkpt lat="43.95482" lon="2.89059">
        <ele>331.1</ele>
        <time>2021-08-17T09:35:20Z</time>
      </trkpt>
      <trkpt lat="43.95575" lon="2.89023">
        <ele>328.7</ele>
        <time>2021-08-17T09:35:55Z</time>
      </trkpt>
      <trkpt lat="43.95671" lon="2.88989">
        <ele>332.3</ele>
        <time>2021-08-17T09:37:15Z</time>
      </trkpt>
      <trkpt lat="43.95736" lon="2.88886">
        <ele>335.3</ele>
        <time>2021-08-17T09:37:45Z</time>
      </trkpt>
      <trkpt lat="43.95803" lon="2.88789">
        <ele>339.9</ele>
        <time>2021-08-17T09:38:15Z</time>
      </trkpt>
      <trkpt lat="43.95856" lon="2.88689">
        <ele>338.8</ele>
        <time>2021-08-17T09:50:29Z</time>
      </trkpt>
      <trkpt lat="43.95849" lon="2.88552">
        <ele>338.3</ele>
        <time>2021-08-17T09:50:49Z</time>
      </trkpt>
      <trkpt lat="43.95822" lon="2.88421">
        <ele>331.1</ele>
        <time>2021-08-17T09:51:09Z</time>
      </trkpt>
      <trkpt lat="43.95802" lon="2.88282">
        <ele>318.7</ele>
        <time>2021-08-17T09:51:34Z</time>
      </trkpt>
      <trkpt lat="43.95774" lon="2.8815">
        <ele>314.4</ele>
        <time>2021-08-17T09:52:04Z</time>
      </trkpt>
      <trkpt lat="43.9568" lon="2.88152">
        <ele>319.4</ele>
        <time>2021-08-17T09:54:34Z</time>
      </trkpt>
      <trkpt lat="43.95703" lon="2.87684">
        <ele>295.6</ele>
        <time>2021-08-17T10:53:37Z</time>
      </trkpt>
      <trkpt lat="43.95793" lon="2.87666">
        <ele>333.6</ele>
        <time>2021-08-17T10:54:46Z</time>
      </trkpt>
      <trkpt lat="43.95713" lon="2.87597">
        <ele>332.7</ele>
        <time>2021-08-17T10:55:45Z</time>
      </trkpt>
      <trkpt lat="43.95733" lon="2.87459">
        <ele>330.5</ele>
        <time>2021-08-17T10:56:10Z</time>
      </trkpt>
      <trkpt lat="43.95749" lon="2.87334">
        <ele>329.8</ele>
        <time>2021-08-17T10:56:30Z</time>
      </trkpt>
      <trkpt lat="43.95748" lon="2.87207">
        <ele>322.2</ele>
        <time>2021-08-17T10:58:12Z</time>
      </trkpt>
      <trkpt lat="43.95708" lon="2.87066">
        <ele>321.4</ele>
        <time>2021-08-17T10:59:53Z</time>
      </trkpt>
      <trkpt lat="43.95686" lon="2.86932">
        <ele>319.1</ele>
        <time>2021-08-17T11:00:13Z</time>
      </trkpt>
      <trkpt lat="43.95662" lon="2.86788">
        <ele>315.9</ele>
        <time>2021-08-17T11:00:33Z</time>
      </trkpt>
      <trkpt lat="43.95631" lon="2.86635">
        <ele>310.8</ele>
        <time>2021-08-17T11:00:53Z</time>
      </trkpt>
      <trkpt lat="43.95619" lon="2.86486">
        <ele>307.4</ele>
        <time>2021-08-17T11:01:13Z</time>
      </trkpt>
      <trkpt lat="43.95631" lon="2.86344">
        <ele>310</ele>
        <time>2021-08-17T11:01:33Z</time>
      </trkpt>
      <trkpt lat="43.95623" lon="2.86212">
        <ele>311.1</ele>
        <time>2021-08-17T11:01:53Z</time>
      </trkpt>
      <trkpt lat="43.95602" lon="2.86083">
        <ele>309.3</ele>
        <time>2021-08-17T11:02:13Z</time>
      </trkpt>
      <trkpt lat="43.95594" lon="2.85948">
        <ele>313.4</ele>
        <time>2021-08-17T11:03:03Z</time>
      </trkpt>
      <trkpt lat="43.9557" lon="2.85798">
        <ele>312.7</ele>
        <time>2021-08-17T11:03:28Z</time>
      </trkpt>
      <trkpt lat="43.95548" lon="2.85655">
        <ele>312</ele>
        <time>2021-08-17T11:03:53Z</time>
      </trkpt>
      <trkpt lat="43.95516" lon="2.85527">
        <ele>309</ele>
        <time>2021-08-17T11:04:13Z</time>
      </trkpt>
      <trkpt lat="43.95467" lon="2.85415">
        <ele>307.6</ele>
        <time>2021-08-17T11:04:38Z</time>
      </trkpt>
      <trkpt lat="43.95435" lon="2.8529">
        <ele>309.9</ele>
        <time>2021-08-17T11:05:03Z</time>
      </trkpt>
      <trkpt lat="43.95401" lon="2.8516">
        <ele>310.5</ele>
        <time>2021-08-17T11:05:28Z</time>
      </trkpt>
      <trkpt lat="43.95366" lon="2.85033">
        <ele>308.6</ele>
        <time>2021-08-17T11:05:53Z</time>
      </trkpt>
      <trkpt lat="43.95334" lon="2.84908">
        <ele>311.1</ele>
        <time>2021-08-17T11:06:23Z</time>
      </trkpt>
      <trkpt lat="43.9531" lon="2.84787">
        <ele>307</ele>
        <time>2021-08-17T11:06:53Z</time>
      </trkpt>
      <trkpt lat="43.95272" lon="2.84659">
        <ele>308.3</ele>
        <time>2021-08-17T11:08:20Z</time>
      </trkpt>
      <trkpt lat="43.95232" lon="2.84513">
        <ele>305.5</ele>
        <time>2021-08-17T11:08:40Z</time>
      </trkpt>
      <trkpt lat="43.95184" lon="2.84374">
        <ele>310.8</ele>
        <time>2021-08-17T11:10:15Z</time>
      </trkpt>
      <trkpt lat="43.95151" lon="2.84242">
        <ele>309</ele>
        <time>2021-08-17T11:10:35Z</time>
      </trkpt>
      <trkpt lat="43.9514" lon="2.84093">
        <ele>307.2</ele>
        <time>2021-08-17T11:10:55Z</time>
      </trkpt>
      <trkpt lat="43.95151" lon="2.83963">
        <ele>310.4</ele>
        <time>2021-08-17T11:11:15Z</time>
      </trkpt>
      <trkpt lat="43.95167" lon="2.83818">
        <ele>308.6</ele>
        <time>2021-08-17T11:11:35Z</time>
      </trkpt>
      <trkpt lat="43.95195" lon="2.83675">
        <ele>307.1</ele>
        <time>2021-08-17T11:12:00Z</time>
      </trkpt>
      <trkpt lat="43.9525" lon="2.83577">
        <ele>308</ele>
        <time>2021-08-17T11:12:20Z</time>
      </trkpt>
      <trkpt lat="43.95323" lon="2.83473">
        <ele>312.1</ele>
        <time>2021-08-17T11:12:45Z</time>
      </trkpt>
      <trkpt lat="43.9538" lon="2.83342">
        <ele>309.9</ele>
        <time>2021-08-17T11:13:10Z</time>
      </trkpt>
      <trkpt lat="43.95436" lon="2.83212">
        <ele>312.7</ele>
        <time>2021-08-17T11:13:35Z</time>
      </trkpt>
      <trkpt lat="43.95505" lon="2.83102">
        <ele>315.4</ele>
        <time>2021-08-17T11:13:55Z</time>
      </trkpt>
      <trkpt lat="43.95571" lon="2.83017">
        <ele>311.3</ele>
        <time>2021-08-17T11:14:10Z</time>
      </trkpt>
      <trkpt lat="43.95629" lon="2.82896">
        <ele>310.9</ele>
        <time>2021-08-17T11:14:30Z</time>
      </trkpt>
      <trkpt lat="43.95648" lon="2.82762">
        <ele>307.2</ele>
        <time>2021-08-17T11:14:50Z</time>
      </trkpt>
      <trkpt lat="43.95639" lon="2.82622">
        <ele>302.8</ele>
        <time>2021-08-17T11:15:10Z</time>
      </trkpt>
      <trkpt lat="43.95587" lon="2.82517">
        <ele>306.6</ele>
        <time>2021-08-17T11:16:26Z</time>
      </trkpt>
      <trkpt lat="43.95566" lon="2.82394">
        <ele>304.4</ele>
        <time>2021-08-17T11:16:51Z</time>
      </trkpt>
      <trkpt lat="43.95571" lon="2.8225">
        <ele>305.9</ele>
        <time>2021-08-17T11:17:21Z</time>
      </trkpt>
      <trkpt lat="43.95582" lon="2.82115">
        <ele>303.6</ele>
        <time>2021-08-17T11:17:51Z</time>
      </trkpt>
      <trkpt lat="43.95588" lon="2.81976">
        <ele>307.7</ele>
        <time>2021-08-17T11:18:21Z</time>
      </trkpt>
      <trkpt lat="43.95589" lon="2.81838">
        <ele>308.6</ele>
        <time>2021-08-17T11:18:46Z</time>
      </trkpt>
      <trkpt lat="43.95595" lon="2.81713">
        <ele>310.1</ele>
        <time>2021-08-17T11:19:11Z</time>
      </trkpt>
      <trkpt lat="43.95591" lon="2.81571">
        <ele>311.7</ele>
        <time>2021-08-17T11:19:41Z</time>
      </trkpt>
      <trkpt lat="43.95569" lon="2.81431">
        <ele>314.5</ele>
        <time>2021-08-17T11:20:11Z</time>
      </trkpt>
      <trkpt lat="43.95564" lon="2.813">
        <ele>312.7</ele>
        <time>2021-08-17T11:20:36Z</time>
      </trkpt>
      <trkpt lat="43.95571" lon="2.81157">
        <ele>307.3</ele>
        <time>2021-08-17T11:21:56Z</time>
      </trkpt>
      <trkpt lat="43.95566" lon="2.81018">
        <ele>305.4</ele>
        <time>2021-08-17T11:22:26Z</time>
      </trkpt>
      <trkpt lat="43.95547" lon="2.80873">
        <ele>309.8</ele>
        <time>2021-08-17T11:22:56Z</time>
      </trkpt>
      <trkpt lat="43.95545" lon="2.80725">
        <ele>305.9</ele>
        <time>2021-08-17T11:23:26Z</time>
      </trkpt>
      <trkpt lat="43.95552" lon="2.80594">
        <ele>306</ele>
        <time>2021-08-17T11:23:51Z</time>
      </trkpt>
      <trkpt lat="43.95577" lon="2.80465">
        <ele>308.2</ele>
        <time>2021-08-17T11:24:16Z</time>
      </trkpt>
      <trkpt lat="43.9562" lon="2.80337">
        <ele>308.7</ele>
        <time>2021-08-17T11:24:41Z</time>
      </trkpt>
      <trkpt lat="43.95668" lon="2.80196">
        <ele>308.8</ele>
        <time>2021-08-17T11:25:06Z</time>
      </trkpt>
      <trkpt lat="43.95723" lon="2.80085">
        <ele>301.8</ele>
        <time>2021-08-17T11:25:26Z</time>
      </trkpt>
      <trkpt lat="43.95791" lon="2.7999">
        <ele>301.7</ele>
        <time>2021-08-17T11:25:46Z</time>
      </trkpt>
      <trkpt lat="43.95874" lon="2.79938">
        <ele>305.8</ele>
        <time>2021-08-17T11:26:21Z</time>
      </trkpt>
      <trkpt lat="43.95925" lon="2.79833">
        <ele>303.8</ele>
        <time>2021-08-17T11:27:13Z</time>
      </trkpt>
      <trkpt lat="43.95995" lon="2.79745">
        <ele>298.4</ele>
        <time>2021-08-17T11:28:15Z</time>
      </trkpt>
      <trkpt lat="43.96068" lon="2.7965">
        <ele>301.2</ele>
        <time>2021-08-17T11:28:40Z</time>
      </trkpt>
      <trkpt lat="43.96134" lon="2.79557">
        <ele>306.6</ele>
        <time>2021-08-17T11:29:00Z</time>
      </trkpt>
      <trkpt lat="43.96207" lon="2.79479">
        <ele>303.6</ele>
        <time>2021-08-17T11:29:20Z</time>
      </trkpt>
      <trkpt lat="43.96295" lon="2.79391">
        <ele>297.7</ele>
        <time>2021-08-17T11:29:45Z</time>
      </trkpt>
      <trkpt lat="43.96375" lon="2.79295">
        <ele>294.5</ele>
        <time>2021-08-17T11:30:10Z</time>
      </trkpt>
      <trkpt lat="43.96424" lon="2.7919">
        <ele>296.8</ele>
        <time>2021-08-17T11:31:06Z</time>
      </trkpt>
      <trkpt lat="43.96459" lon="2.79069">
        <ele>296.2</ele>
        <time>2021-08-17T11:31:26Z</time>
      </trkpt>
      <trkpt lat="43.9646" lon="2.78738">
        <ele>328.4</ele>
        <time>2021-08-17T11:32:39Z</time>
      </trkpt>
      <trkpt lat="43.96466" lon="2.78593">
        <ele>297.4</ele>
        <time>2021-08-17T11:35:37Z</time>
      </trkpt>
      <trkpt lat="43.96438" lon="2.7847">
        <ele>296.7</ele>
        <time>2021-08-17T11:37:17Z</time>
      </trkpt>
      <trkpt lat="43.96389" lon="2.78339">
        <ele>294.5</ele>
        <time>2021-08-17T11:37:47Z</time>
      </trkpt>
      <trkpt lat="43.96349" lon="2.78225">
        <ele>290.8</ele>
        <time>2021-08-17T11:38:12Z</time>
      </trkpt>
      <trkpt lat="43.96265" lon="2.78153">
        <ele>289.7</ele>
        <time>2021-08-17T11:39:03Z</time>
      </trkpt>
      <trkpt lat="43.96203" lon="2.78044">
        <ele>288.6</ele>
        <time>2021-08-17T11:39:23Z</time>
      </trkpt>
      <trkpt lat="43.96134" lon="2.77924">
        <ele>289.9</ele>
        <time>2021-08-17T11:39:48Z</time>
      </trkpt>
      <trkpt lat="43.96071" lon="2.77817">
        <ele>294.3</ele>
        <time>2021-08-17T11:40:13Z</time>
      </trkpt>
      <trkpt lat="43.96022" lon="2.77697">
        <ele>294.3</ele>
        <time>2021-08-17T11:40:38Z</time>
      </trkpt>
      <trkpt lat="43.96008" lon="2.77564">
        <ele>292.9</ele>
        <time>2021-08-17T11:41:03Z</time>
      </trkpt>
      <trkpt lat="43.96023" lon="2.77417">
        <ele>295.8</ele>
        <time>2021-08-17T11:41:28Z</time>
      </trkpt>
      <trkpt lat="43.96047" lon="2.77293">
        <ele>297.7</ele>
        <time>2021-08-17T11:41:53Z</time>
      </trkpt>
      <trkpt lat="43.96077" lon="2.77172">
        <ele>296.7</ele>
        <time>2021-08-17T11:42:23Z</time>
      </trkpt>
      <trkpt lat="43.96108" lon="2.77033">
        <ele>295.7</ele>
        <time>2021-08-17T11:42:53Z</time>
      </trkpt>
      <trkpt lat="43.961" lon="2.76899">
        <ele>292.6</ele>
        <time>2021-08-17T11:43:23Z</time>
      </trkpt>
      <trkpt lat="43.96052" lon="2.76786">
        <ele>294.4</ele>
        <time>2021-08-17T11:43:48Z</time>
      </trkpt>
      <trkpt lat="43.9596" lon="2.76705">
        <ele>297.9</ele>
        <time>2021-08-17T11:44:13Z</time>
      </trkpt>
      <trkpt lat="43.95869" lon="2.76657">
        <ele>306.4</ele>
        <time>2021-08-17T11:44:38Z</time>
      </trkpt>
      <trkpt lat="43.95773" lon="2.76612">
        <ele>314.5</ele>
        <time>2021-08-17T11:45:03Z</time>
      </trkpt>
      <trkpt lat="43.9568" lon="2.76567">
        <ele>317.1</ele>
        <time>2021-08-17T11:45:28Z</time>
      </trkpt>
      <trkpt lat="43.9559" lon="2.76551">
        <ele>319.6</ele>
        <time>2021-08-17T11:45:53Z</time>
      </trkpt>
      <trkpt lat="43.95482" lon="2.76557">
        <ele>320.5</ele>
        <time>2021-08-17T11:46:23Z</time>
      </trkpt>
      <trkpt lat="43.95381" lon="2.76583">
        <ele>314.5</ele>
        <time>2021-08-17T11:46:53Z</time>
      </trkpt>
      <trkpt lat="43.95291" lon="2.76641">
        <ele>313.6</ele>
        <time>2021-08-17T11:47:23Z</time>
      </trkpt>
      <trkpt lat="43.95211" lon="2.76703">
        <ele>318.1</ele>
        <time>2021-08-17T11:47:48Z</time>
      </trkpt>
      <trkpt lat="43.95108" lon="2.76711">
        <ele>313.2</ele>
        <time>2021-08-17T11:48:18Z</time>
      </trkpt>
      <trkpt lat="43.95024" lon="2.76646">
        <ele>317.6</ele>
        <time>2021-08-17T11:48:48Z</time>
      </trkpt>
      <trkpt lat="43.94988" lon="2.76524">
        <ele>326.2</ele>
        <time>2021-08-17T11:49:18Z</time>
      </trkpt>
      <trkpt lat="43.94993" lon="2.76396">
        <ele>319.7</ele>
        <time>2021-08-17T11:52:25Z</time>
      </trkpt>
      <trkpt lat="43.95061" lon="2.76262">
        <ele>313.2</ele>
        <time>2021-08-17T11:52:45Z</time>
      </trkpt>
      <trkpt lat="43.95132" lon="2.7614">
        <ele>304.4</ele>
        <time>2021-08-17T11:53:00Z</time>
      </trkpt>
      <trkpt lat="43.95196" lon="2.76038">
        <ele>297.3</ele>
        <time>2021-08-17T11:53:15Z</time>
      </trkpt>
      <trkpt lat="43.9528" lon="2.75981">
        <ele>295.9</ele>
        <time>2021-08-17T11:53:30Z</time>
      </trkpt>
      <trkpt lat="43.95375" lon="2.75936">
        <ele>293.1</ele>
        <time>2021-08-17T11:53:45Z</time>
      </trkpt>
      <trkpt lat="43.95452" lon="2.75859">
        <ele>289.2</ele>
        <time>2021-08-17T11:54:00Z</time>
      </trkpt>
      <trkpt lat="43.95536" lon="2.75795">
        <ele>286.4</ele>
        <time>2021-08-17T11:54:15Z</time>
      </trkpt>
      <trkpt lat="43.95636" lon="2.75715">
        <ele>285.2</ele>
        <time>2021-08-17T11:54:35Z</time>
      </trkpt>
      <trkpt lat="43.95697" lon="2.75623">
        <ele>285.1</ele>
        <time>2021-08-17T11:54:50Z</time>
      </trkpt>
      <trkpt lat="43.9578" lon="2.75546">
        <ele>284.8</ele>
        <time>2021-08-17T11:55:10Z</time>
      </trkpt>
      <trkpt lat="43.95876" lon="2.75481">
        <ele>284.8</ele>
        <time>2021-08-17T11:55:35Z</time>
      </trkpt>
      <trkpt lat="43.9594" lon="2.75357">
        <ele>283.5</ele>
        <time>2021-08-17T11:56:00Z</time>
      </trkpt>
      <trkpt lat="43.95955" lon="2.75228">
        <ele>287</ele>
        <time>2021-08-17T11:56:20Z</time>
      </trkpt>
      <trkpt lat="43.95961" lon="2.751">
        <ele>292.9</ele>
        <time>2021-08-17T11:56:40Z</time>
      </trkpt>
      <trkpt lat="43.95913" lon="2.74983">
        <ele>293.6</ele>
        <time>2021-08-17T11:57:05Z</time>
      </trkpt>
      <trkpt lat="43.95858" lon="2.74864">
        <ele>290.1</ele>
        <time>2021-08-17T11:57:25Z</time>
      </trkpt>
      <trkpt lat="43.95776" lon="2.74751">
        <ele>291.1</ele>
        <time>2021-08-17T11:57:45Z</time>
      </trkpt>
      <trkpt lat="43.95674" lon="2.74688">
        <ele>287.8</ele>
        <time>2021-08-17T11:58:05Z</time>
      </trkpt>
      <trkpt lat="43.95603" lon="2.74593">
        <ele>282.4</ele>
        <time>2021-08-17T11:58:25Z</time>
      </trkpt>
      <trkpt lat="43.9555" lon="2.74471">
        <ele>284.4</ele>
        <time>2021-08-17T11:58:45Z</time>
      </trkpt>
      <trkpt lat="43.95521" lon="2.7434">
        <ele>285.3</ele>
        <time>2021-08-17T11:59:05Z</time>
      </trkpt>
      <trkpt lat="43.9557" lon="2.7422">
        <ele>287.9</ele>
        <time>2021-08-17T11:59:25Z</time>
      </trkpt>
      <trkpt lat="43.95651" lon="2.74122">
        <ele>287</ele>
        <time>2021-08-17T11:59:50Z</time>
      </trkpt>
      <trkpt lat="43.95732" lon="2.74036">
        <ele>283.1</ele>
        <time>2021-08-17T12:00:15Z</time>
      </trkpt>
      <trkpt lat="43.95811" lon="2.73967">
        <ele>284.1</ele>
        <time>2021-08-17T12:00:35Z</time>
      </trkpt>
      <trkpt lat="43.95896" lon="2.73914">
        <ele>282.2</ele>
        <time>2021-08-17T12:00:55Z</time>
      </trkpt>
      <trkpt lat="43.95993" lon="2.73935">
        <ele>279</ele>
        <time>2021-08-17T12:01:15Z</time>
      </trkpt>
      <trkpt lat="43.96085" lon="2.73941">
        <ele>279.3</ele>
        <time>2021-08-17T12:01:35Z</time>
      </trkpt>
      <trkpt lat="43.96157" lon="2.73852">
        <ele>279.2</ele>
        <time>2021-08-17T12:01:55Z</time>
      </trkpt>
      <trkpt lat="43.96266" lon="2.73832">
        <ele>278.3</ele>
        <time>2021-08-17T12:02:20Z</time>
      </trkpt>
      <trkpt lat="43.96369" lon="2.73891">
        <ele>277.5</ele>
        <time>2021-08-17T12:02:40Z</time>
      </trkpt>
      <trkpt lat="43.96464" lon="2.73948">
        <ele>276.7</ele>
        <time>2021-08-17T12:03:00Z</time>
      </trkpt>
      <trkpt lat="43.96563" lon="2.7401">
        <ele>278</ele>
        <time>2021-08-17T12:03:20Z</time>
      </trkpt>
      <trkpt lat="43.9666" lon="2.74072">
        <ele>275.9</ele>
        <time>2021-08-17T12:03:40Z</time>
      </trkpt>
      <trkpt lat="43.96757" lon="2.74133">
        <ele>273.4</ele>
        <time>2021-08-17T12:04:00Z</time>
      </trkpt>
      <trkpt lat="43.96874" lon="2.74148">
        <ele>271.8</ele>
        <time>2021-08-17T12:04:20Z</time>
      </trkpt>
      <trkpt lat="43.96989" lon="2.74154">
        <ele>268.3</ele>
        <time>2021-08-17T12:04:40Z</time>
      </trkpt>
      <trkpt lat="43.97104" lon="2.74151">
        <ele>272.1</ele>
        <time>2021-08-17T12:05:00Z</time>
      </trkpt>
      <trkpt lat="43.97187" lon="2.74098">
        <ele>270.3</ele>
        <time>2021-08-17T12:05:15Z</time>
      </trkpt>
      <trkpt lat="43.97266" lon="2.74013">
        <ele>273</ele>
        <time>2021-08-17T12:05:30Z</time>
      </trkpt>
      <trkpt lat="43.97343" lon="2.73896">
        <ele>270</ele>
        <time>2021-08-17T12:05:50Z</time>
      </trkpt>
      <trkpt lat="43.97396" lon="2.73786">
        <ele>268.7</ele>
        <time>2021-08-17T12:06:05Z</time>
      </trkpt>
      <trkpt lat="43.97403" lon="2.73634">
        <ele>271.6</ele>
        <time>2021-08-17T12:06:25Z</time>
      </trkpt>
      <trkpt lat="43.97381" lon="2.73483">
        <ele>275.1</ele>
        <time>2021-08-17T12:06:45Z</time>
      </trkpt>
      <trkpt lat="43.97338" lon="2.7335">
        <ele>277.3</ele>
        <time>2021-08-17T12:07:05Z</time>
      </trkpt>
      <trkpt lat="43.97303" lon="2.73205">
        <ele>276.8</ele>
        <time>2021-08-17T12:07:30Z</time>
      </trkpt>
      <trkpt lat="43.97275" lon="2.73061">
        <ele>275.5</ele>
        <time>2021-08-17T12:07:55Z</time>
      </trkpt>
      <trkpt lat="43.97252" lon="2.72938">
        <ele>272.8</ele>
        <time>2021-08-17T12:08:20Z</time>
      </trkpt>
      <trkpt lat="43.97219" lon="2.72807">
        <ele>271.7</ele>
        <time>2021-08-17T12:08:45Z</time>
      </trkpt>
      <trkpt lat="43.97203" lon="2.72671">
        <ele>270.9</ele>
        <time>2021-08-17T12:09:10Z</time>
      </trkpt>
      <trkpt lat="43.97193" lon="2.72535">
        <ele>272.1</ele>
        <time>2021-08-17T12:09:35Z</time>
      </trkpt>
      <trkpt lat="43.97144" lon="2.72408">
        <ele>273.1</ele>
        <time>2021-08-17T12:10:05Z</time>
      </trkpt>
      <trkpt lat="43.97092" lon="2.72276">
        <ele>275.9</ele>
        <time>2021-08-17T12:10:30Z</time>
      </trkpt>
      <trkpt lat="43.97085" lon="2.72146">
        <ele>275.5</ele>
        <time>2021-08-17T12:10:50Z</time>
      </trkpt>
      <trkpt lat="43.9711" lon="2.72022">
        <ele>272.9</ele>
        <time>2021-08-17T12:11:10Z</time>
      </trkpt>
      <trkpt lat="43.97213" lon="2.7201">
        <ele>268.1</ele>
        <time>2021-08-17T12:11:35Z</time>
      </trkpt>
      <trkpt lat="43.97294" lon="2.72087">
        <ele>268.4</ele>
        <time>2021-08-17T12:11:55Z</time>
      </trkpt>
      <trkpt lat="43.97331" lon="2.72205">
        <ele>261.6</ele>
        <time>2021-08-17T12:12:15Z</time>
      </trkpt>
      <trkpt lat="43.97419" lon="2.72139">
        <ele>268.3</ele>
        <time>2021-08-17T12:22:53Z</time>
      </trkpt>
      <trkpt lat="43.97456" lon="2.72011">
        <ele>257.9</ele>
        <time>2021-08-17T12:40:22Z</time>
      </trkpt>
      <trkpt lat="43.97415" lon="2.71887">
        <ele>258.9</ele>
        <time>2021-08-17T12:40:57Z</time>
      </trkpt>
      <trkpt lat="43.97381" lon="2.71763">
        <ele>266.8</ele>
        <time>2021-08-17T12:42:04Z</time>
      </trkpt>
      <trkpt lat="43.97314" lon="2.7166">
        <ele>277.6</ele>
        <time>2021-08-17T12:42:56Z</time>
      </trkpt>
      <trkpt lat="43.97222" lon="2.71602">
        <ele>285.1</ele>
        <time>2021-08-17T12:43:41Z</time>
      </trkpt>
      <trkpt lat="43.97142" lon="2.71533">
        <ele>288.6</ele>
        <time>2021-08-17T12:44:27Z</time>
      </trkpt>
      <trkpt lat="43.97045" lon="2.71511">
        <ele>296.4</ele>
        <time>2021-08-17T12:45:22Z</time>
      </trkpt>
      <trkpt lat="43.96947" lon="2.71504">
        <ele>302.4</ele>
        <time>2021-08-17T12:46:14Z</time>
      </trkpt>
      <trkpt lat="43.96862" lon="2.71566">
        <ele>306.7</ele>
        <time>2021-08-17T12:46:54Z</time>
      </trkpt>
      <trkpt lat="43.96767" lon="2.71591">
        <ele>313</ele>
        <time>2021-08-17T12:47:52Z</time>
      </trkpt>
      <trkpt lat="43.96678" lon="2.71618">
        <ele>321.6</ele>
        <time>2021-08-17T12:48:42Z</time>
      </trkpt>
      <trkpt lat="43.96592" lon="2.71657">
        <ele>330</ele>
        <time>2021-08-17T12:49:22Z</time>
      </trkpt>
      <trkpt lat="43.96563" lon="2.71526">
        <ele>335.9</ele>
        <time>2021-08-17T12:50:42Z</time>
      </trkpt>
      <trkpt lat="43.96574" lon="2.71393">
        <ele>339.4</ele>
        <time>2021-08-17T12:51:27Z</time>
      </trkpt>
      <trkpt lat="43.96512" lon="2.71295">
        <ele>346.6</ele>
        <time>2021-08-17T12:52:21Z</time>
      </trkpt>
      <trkpt lat="43.96451" lon="2.71198">
        <ele>350.1</ele>
        <time>2021-08-17T12:53:15Z</time>
      </trkpt>
      <trkpt lat="43.96364" lon="2.71228">
        <ele>357.7</ele>
        <time>2021-08-17T12:54:34Z</time>
      </trkpt>
      <trkpt lat="43.96277" lon="2.7117">
        <ele>371.3</ele>
        <time>2021-08-17T12:55:47Z</time>
      </trkpt>
      <trkpt lat="43.9628" lon="2.71036">
        <ele>380.5</ele>
        <time>2021-08-17T12:56:40Z</time>
      </trkpt>
      <trkpt lat="43.96281" lon="2.70907">
        <ele>391</ele>
        <time>2021-08-17T12:57:29Z</time>
      </trkpt>
      <trkpt lat="43.96227" lon="2.708">
        <ele>396.6</ele>
        <time>2021-08-17T12:58:23Z</time>
      </trkpt>
      <trkpt lat="43.96169" lon="2.70691">
        <ele>397.4</ele>
        <time>2021-08-17T12:59:14Z</time>
      </trkpt>
      <trkpt lat="43.96198" lon="2.70548">
        <ele>394</ele>
        <time>2021-08-17T13:03:02Z</time>
      </trkpt>
      <trkpt lat="43.96115" lon="2.70455">
        <ele>392.8</ele>
        <time>2021-08-17T13:03:17Z</time>
      </trkpt>
      <trkpt lat="43.96013" lon="2.70369">
        <ele>390.6</ele>
        <time>2021-08-17T13:03:32Z</time>
      </trkpt>
      <trkpt lat="43.95988" lon="2.70205">
        <ele>387.1</ele>
        <time>2021-08-17T13:03:47Z</time>
      </trkpt>
      <trkpt lat="43.95978" lon="2.7008">
        <ele>381.7</ele>
        <time>2021-08-17T13:03:57Z</time>
      </trkpt>
      <trkpt lat="43.95951" lon="2.70225">
        <ele>374.2</ele>
        <time>2021-08-17T13:04:17Z</time>
      </trkpt>
      <trkpt lat="43.9595" lon="2.70359">
        <ele>366.8</ele>
        <time>2021-08-17T13:04:32Z</time>
      </trkpt>
      <trkpt lat="43.95927" lon="2.70214">
        <ele>359.6</ele>
        <time>2021-08-17T13:04:47Z</time>
      </trkpt>
      <trkpt lat="43.95903" lon="2.70092">
        <ele>354.3</ele>
        <time>2021-08-17T13:04:57Z</time>
      </trkpt>
      <trkpt lat="43.95875" lon="2.69921">
        <ele>342.4</ele>
        <time>2021-08-17T13:05:12Z</time>
      </trkpt>
      <trkpt lat="43.95822" lon="2.69811">
        <ele>337.6</ele>
        <time>2021-08-17T13:05:22Z</time>
      </trkpt>
      <trkpt lat="43.95806" lon="2.69673">
        <ele>332.6</ele>
        <time>2021-08-17T13:05:32Z</time>
      </trkpt>
      <trkpt lat="43.95832" lon="2.69548">
        <ele>327.3</ele>
        <time>2021-08-17T13:05:42Z</time>
      </trkpt>
      <trkpt lat="43.95885" lon="2.69431">
        <ele>321.8</ele>
        <time>2021-08-17T13:05:52Z</time>
      </trkpt>
      <trkpt lat="43.95946" lon="2.69328">
        <ele>316.6</ele>
        <time>2021-08-17T13:06:02Z</time>
      </trkpt>
      <trkpt lat="43.95941" lon="2.6919">
        <ele>309.4</ele>
        <time>2021-08-17T13:06:17Z</time>
      </trkpt>
      <trkpt lat="43.9602" lon="2.69093">
        <ele>290.4</ele>
        <time>2021-08-17T13:07:01Z</time>
      </trkpt>
      <trkpt lat="43.96115" lon="2.69054">
        <ele>284.8</ele>
        <time>2021-08-17T13:07:21Z</time>
      </trkpt>
      <trkpt lat="43.9621" lon="2.69066">
        <ele>284.9</ele>
        <time>2021-08-17T13:07:46Z</time>
      </trkpt>
      <trkpt lat="43.96299" lon="2.68997">
        <ele>281.2</ele>
        <time>2021-08-17T13:08:01Z</time>
      </trkpt>
      <trkpt lat="43.96427" lon="2.68991">
        <ele>277.6</ele>
        <time>2021-08-17T13:08:16Z</time>
      </trkpt>
      <trkpt lat="43.96537" lon="2.68988">
        <ele>273.8</ele>
        <time>2021-08-17T13:08:31Z</time>
      </trkpt>
      <trkpt lat="43.96566" lon="2.68847">
        <ele>275.2</ele>
        <time>2021-08-17T13:08:46Z</time>
      </trkpt>
      <trkpt lat="43.96633" lon="2.68728">
        <ele>273.3</ele>
        <time>2021-08-17T13:09:06Z</time>
      </trkpt>
      <trkpt lat="43.96695" lon="2.68634">
        <ele>273.3</ele>
        <time>2021-08-17T13:09:26Z</time>
      </trkpt>
      <trkpt lat="43.96764" lon="2.68538">
        <ele>273.4</ele>
        <time>2021-08-17T13:09:46Z</time>
      </trkpt>
      <trkpt lat="43.96853" lon="2.68461">
        <ele>273.2</ele>
        <time>2021-08-17T13:10:11Z</time>
      </trkpt>
      <trkpt lat="43.96964" lon="2.68404">
        <ele>270.2</ele>
        <time>2021-08-17T13:10:31Z</time>
      </trkpt>
      <trkpt lat="43.97018" lon="2.68291">
        <ele>270.6</ele>
        <time>2021-08-17T13:10:46Z</time>
      </trkpt>
      <trkpt lat="43.97095" lon="2.68199">
        <ele>268.8</ele>
        <time>2021-08-17T13:11:06Z</time>
      </trkpt>
      <trkpt lat="43.97186" lon="2.68198">
        <ele>272.4</ele>
        <time>2021-08-17T13:11:36Z</time>
      </trkpt>
      <trkpt lat="43.97279" lon="2.68195">
        <ele>272.8</ele>
        <time>2021-08-17T13:12:06Z</time>
      </trkpt>
      <trkpt lat="43.97368" lon="2.68124">
        <ele>270.4</ele>
        <time>2021-08-17T13:12:21Z</time>
      </trkpt>
      <trkpt lat="43.97474" lon="2.68083">
        <ele>269.3</ele>
        <time>2021-08-17T13:12:36Z</time>
      </trkpt>
      <trkpt lat="43.97582" lon="2.68112">
        <ele>272.7</ele>
        <time>2021-08-17T13:12:56Z</time>
      </trkpt>
      <trkpt lat="43.9766" lon="2.68177">
        <ele>273.8</ele>
        <time>2021-08-17T13:13:21Z</time>
      </trkpt>
      <trkpt lat="43.97756" lon="2.6809">
        <ele>267.4</ele>
        <time>2021-08-17T13:13:36Z</time>
      </trkpt>
      <trkpt lat="43.97771" lon="2.6794">
        <ele>264.5</ele>
        <time>2021-08-17T13:13:51Z</time>
      </trkpt>
      <trkpt lat="43.97851" lon="2.67837">
        <ele>261.7</ele>
        <time>2021-08-17T13:14:11Z</time>
      </trkpt>
      <trkpt lat="43.97895" lon="2.67717">
        <ele>258.7</ele>
        <time>2021-08-17T13:14:26Z</time>
      </trkpt>
      <trkpt lat="43.97979" lon="2.67616">
        <ele>252.9</ele>
        <time>2021-08-17T13:14:41Z</time>
      </trkpt>
      <trkpt lat="43.98015" lon="2.67491">
        <ele>249.2</ele>
        <time>2021-08-17T13:14:56Z</time>
      </trkpt>
      <trkpt lat="43.98073" lon="2.67398">
        <ele>246.5</ele>
        <time>2021-08-17T13:15:11Z</time>
      </trkpt>
      <trkpt lat="43.98107" lon="2.67283">
        <ele>244.9</ele>
        <time>2021-08-17T13:15:26Z</time>
      </trkpt>
      <trkpt lat="43.98168" lon="2.67163">
        <ele>244.2</ele>
        <time>2021-08-17T13:15:41Z</time>
      </trkpt>
      <trkpt lat="43.98271" lon="2.67113">
        <ele>242</ele>
        <time>2021-08-17T13:15:56Z</time>
      </trkpt>
      <trkpt lat="43.98324" lon="2.66987">
        <ele>239.2</ele>
        <time>2021-08-17T13:16:16Z</time>
      </trkpt>
      <trkpt lat="43.9834" lon="2.66836">
        <ele>234.5</ele>
        <time>2021-08-17T13:16:36Z</time>
      </trkpt>
      <trkpt lat="43.9834" lon="2.66691">
        <ele>235.1</ele>
        <time>2021-08-17T13:16:56Z</time>
      </trkpt>
      <trkpt lat="43.98361" lon="2.66569">
        <ele>234.4</ele>
        <time>2021-08-17T13:17:21Z</time>
      </trkpt>
      <trkpt lat="43.98386" lon="2.66442">
        <ele>232.8</ele>
        <time>2021-08-17T13:17:46Z</time>
      </trkpt>
      <trkpt lat="43.98449" lon="2.66315">
        <ele>230.4</ele>
        <time>2021-08-17T13:18:06Z</time>
      </trkpt>
      <trkpt lat="43.98544" lon="2.66221">
        <ele>235.9</ele>
        <time>2021-08-17T13:18:26Z</time>
      </trkpt>
      <trkpt lat="43.98623" lon="2.66148">
        <ele>239.6</ele>
        <time>2021-08-17T13:18:41Z</time>
      </trkpt>
      <trkpt lat="43.98681" lon="2.66033">
        <ele>240.9</ele>
        <time>2021-08-17T13:19:01Z</time>
      </trkpt>
      <trkpt lat="43.98758" lon="2.65939">
        <ele>240.1</ele>
        <time>2021-08-17T13:19:26Z</time>
      </trkpt>
      <trkpt lat="43.98792" lon="2.65822">
        <ele>241.8</ele>
        <time>2021-08-17T13:22:48Z</time>
      </trkpt>
      <trkpt lat="43.98835" lon="2.65673">
        <ele>244.5</ele>
        <time>2021-08-17T13:23:13Z</time>
      </trkpt>
      <trkpt lat="43.98861" lon="2.65552">
        <ele>247.7</ele>
        <time>2021-08-17T13:23:28Z</time>
      </trkpt>
      <trkpt lat="43.98908" lon="2.65416">
        <ele>253</ele>
        <time>2021-08-17T13:23:53Z</time>
      </trkpt>
      <trkpt lat="43.98937" lon="2.65281">
        <ele>257.9</ele>
        <time>2021-08-17T13:24:13Z</time>
      </trkpt>
      <trkpt lat="43.98959" lon="2.65149">
        <ele>260.5</ele>
        <time>2021-08-17T13:24:33Z</time>
      </trkpt>
      <trkpt lat="43.98975" lon="2.65001">
        <ele>262.1</ele>
        <time>2021-08-17T13:24:53Z</time>
      </trkpt>
      <trkpt lat="43.98963" lon="2.64853">
        <ele>263.8</ele>
        <time>2021-08-17T13:25:13Z</time>
      </trkpt>
      <trkpt lat="43.98942" lon="2.64724">
        <ele>262.9</ele>
        <time>2021-08-17T13:25:33Z</time>
      </trkpt>
      <trkpt lat="43.98916" lon="2.64602">
        <ele>263.1</ele>
        <time>2021-08-17T13:25:53Z</time>
      </trkpt>
      <trkpt lat="43.98877" lon="2.64458">
        <ele>264.2</ele>
        <time>2021-08-17T13:26:13Z</time>
      </trkpt>
      <trkpt lat="43.98852" lon="2.64321">
        <ele>265.2</ele>
        <time>2021-08-17T13:26:33Z</time>
      </trkpt>
      <trkpt lat="43.98861" lon="2.64178">
        <ele>264.5</ele>
        <time>2021-08-17T13:26:53Z</time>
      </trkpt>
      <trkpt lat="43.98877" lon="2.64028">
        <ele>264.7</ele>
        <time>2021-08-17T13:27:18Z</time>
      </trkpt>
      <trkpt lat="43.9888" lon="2.63893">
        <ele>264.1</ele>
        <time>2021-08-17T13:27:43Z</time>
      </trkpt>
      <trkpt lat="43.98894" lon="2.63763">
        <ele>262.8</ele>
        <time>2021-08-17T13:28:03Z</time>
      </trkpt>
      <trkpt lat="43.98902" lon="2.63629">
        <ele>263.3</ele>
        <time>2021-08-17T13:28:23Z</time>
      </trkpt>
      <trkpt lat="43.98903" lon="2.63495">
        <ele>262.1</ele>
        <time>2021-08-17T13:28:43Z</time>
      </trkpt>
      <trkpt lat="43.98907" lon="2.63358">
        <ele>259.3</ele>
        <time>2021-08-17T13:29:13Z</time>
      </trkpt>
      <trkpt lat="43.98925" lon="2.63231">
        <ele>256</ele>
        <time>2021-08-17T13:29:43Z</time>
      </trkpt>
      <trkpt lat="43.98938" lon="2.63092">
        <ele>255.4</ele>
        <time>2021-08-17T13:30:03Z</time>
      </trkpt>
      <trkpt lat="43.98955" lon="2.62966">
        <ele>253.7</ele>
        <time>2021-08-17T13:30:18Z</time>
      </trkpt>
      <trkpt lat="43.98987" lon="2.62839">
        <ele>249.6</ele>
        <time>2021-08-17T13:30:43Z</time>
      </trkpt>
      <trkpt lat="43.99071" lon="2.62747">
        <ele>246.4</ele>
        <time>2021-08-17T13:31:03Z</time>
      </trkpt>
      <trkpt lat="43.99174" lon="2.62732">
        <ele>244.1</ele>
        <time>2021-08-17T13:31:23Z</time>
      </trkpt>
      <trkpt lat="43.99273" lon="2.62694">
        <ele>242.1</ele>
        <time>2021-08-17T13:31:43Z</time>
      </trkpt>
      <trkpt lat="43.99335" lon="2.62605">
        <ele>238.9</ele>
        <time>2021-08-17T13:31:58Z</time>
      </trkpt>
      <trkpt lat="43.99427" lon="2.62501">
        <ele>234.4</ele>
        <time>2021-08-17T13:32:18Z</time>
      </trkpt>
      <trkpt lat="43.99505" lon="2.62402">
        <ele>229.6</ele>
        <time>2021-08-17T13:32:38Z</time>
      </trkpt>
      <trkpt lat="43.99596" lon="2.62305">
        <ele>229.5</ele>
        <time>2021-08-17T13:32:58Z</time>
      </trkpt>
      <trkpt lat="43.99678" lon="2.62224">
        <ele>232.3</ele>
        <time>2021-08-17T13:33:18Z</time>
      </trkpt>
      <trkpt lat="43.99749" lon="2.62137">
        <ele>242.9</ele>
        <time>2021-08-17T13:37:06Z</time>
      </trkpt>
      <trkpt lat="43.99809" lon="2.62012">
        <ele>242.4</ele>
        <time>2021-08-17T13:37:31Z</time>
      </trkpt>
      <trkpt lat="43.99864" lon="2.61885">
        <ele>240.9</ele>
        <time>2021-08-17T13:37:56Z</time>
      </trkpt>
      <trkpt lat="43.99917" lon="2.61757">
        <ele>238.6</ele>
        <time>2021-08-17T13:38:21Z</time>
      </trkpt>
      <trkpt lat="43.99972" lon="2.61633">
        <ele>235.9</ele>
        <time>2021-08-17T13:38:46Z</time>
      </trkpt>
      <trkpt lat="44.00008" lon="2.61503">
        <ele>231.8</ele>
        <time>2021-08-17T13:39:11Z</time>
      </trkpt>
      <trkpt lat="44.00052" lon="2.61378">
        <ele>230.5</ele>
        <time>2021-08-17T13:39:31Z</time>
      </trkpt>
      <trkpt lat="44.00108" lon="2.6126">
        <ele>232.9</ele>
        <time>2021-08-17T13:39:51Z</time>
      </trkpt>
      <trkpt lat="44.00185" lon="2.61145">
        <ele>229.9</ele>
        <time>2021-08-17T13:40:11Z</time>
      </trkpt>
      <trkpt lat="44.00251" lon="2.61033">
        <ele>228.5</ele>
        <time>2021-08-17T13:40:31Z</time>
      </trkpt>
      <trkpt lat="44.00316" lon="2.60937">
        <ele>229.6</ele>
        <time>2021-08-17T13:41:01Z</time>
      </trkpt>
      <trkpt lat="44.0042" lon="2.60895">
        <ele>232.4</ele>
        <time>2021-08-17T13:41:26Z</time>
      </trkpt>
      <trkpt lat="44.00513" lon="2.60886">
        <ele>233.7</ele>
        <time>2021-08-17T13:41:41Z</time>
      </trkpt>
      <trkpt lat="44.00625" lon="2.60915">
        <ele>238.8</ele>
        <time>2021-08-17T13:41:56Z</time>
      </trkpt>
      <trkpt lat="44.00723" lon="2.60901">
        <ele>245.7</ele>
        <time>2021-08-17T13:42:16Z</time>
      </trkpt>
      <trkpt lat="44.00789" lon="2.60799">
        <ele>248.4</ele>
        <time>2021-08-17T13:42:36Z</time>
      </trkpt>
      <trkpt lat="44.00816" lon="2.60659">
        <ele>245.2</ele>
        <time>2021-08-17T13:42:56Z</time>
      </trkpt>
      <trkpt lat="44.00775" lon="2.60526">
        <ele>245.6</ele>
        <time>2021-08-17T13:43:26Z</time>
      </trkpt>
      <trkpt lat="44.00683" lon="2.60474">
        <ele>244.8</ele>
        <time>2021-08-17T13:43:56Z</time>
      </trkpt>
      <trkpt lat="44.00602" lon="2.60395">
        <ele>245.5</ele>
        <time>2021-08-17T13:44:21Z</time>
      </trkpt>
      <trkpt lat="44.00526" lon="2.60308">
        <ele>247.7</ele>
        <time>2021-08-17T13:44:41Z</time>
      </trkpt>
      <trkpt lat="44.0062" lon="2.60293">
        <ele>248.2</ele>
        <time>2021-08-17T13:46:44Z</time>
      </trkpt>
      <trkpt lat="44.00667" lon="2.60151">
        <ele>245</ele>
        <time>2021-08-17T13:47:04Z</time>
      </trkpt>
      <trkpt lat="44.00689" lon="2.59998">
        <ele>243.1</ele>
        <time>2021-08-17T13:47:24Z</time>
      </trkpt>
      <trkpt lat="44.007" lon="2.59841">
        <ele>244.5</ele>
        <time>2021-08-17T13:47:44Z</time>
      </trkpt>
      <trkpt lat="44.00745" lon="2.59715">
        <ele>245.8</ele>
        <time>2021-08-17T13:48:04Z</time>
      </trkpt>
      <trkpt lat="44.00799" lon="2.59598">
        <ele>246.9</ele>
        <time>2021-08-17T13:48:19Z</time>
      </trkpt>
      <trkpt lat="44.00848" lon="2.59456">
        <ele>248.1</ele>
        <time>2021-08-17T13:48:39Z</time>
      </trkpt>
      <trkpt lat="44.00853" lon="2.59303">
        <ele>249.3</ele>
        <time>2021-08-17T13:48:59Z</time>
      </trkpt>
      <trkpt lat="44.00837" lon="2.59172">
        <ele>249.3</ele>
        <time>2021-08-17T13:49:14Z</time>
      </trkpt>
      <trkpt lat="44.0081" lon="2.59048">
        <ele>248.3</ele>
        <time>2021-08-17T13:49:29Z</time>
      </trkpt>
      <trkpt lat="44.00795" lon="2.58893">
        <ele>247.5</ele>
        <time>2021-08-17T13:49:49Z</time>
      </trkpt>
      <trkpt lat="44.00777" lon="2.58737">
        <ele>246</ele>
        <time>2021-08-17T13:50:09Z</time>
      </trkpt>
      <trkpt lat="44.00751" lon="2.58593">
        <ele>246.3</ele>
        <time>2021-08-17T13:50:29Z</time>
      </trkpt>
      <trkpt lat="44.00701" lon="2.58455">
        <ele>242.5</ele>
        <time>2021-08-17T13:50:49Z</time>
      </trkpt>
      <trkpt lat="44.00628" lon="2.58337">
        <ele>235.8</ele>
        <time>2021-08-17T13:51:09Z</time>
      </trkpt>
      <trkpt lat="44.00563" lon="2.58198">
        <ele>233.1</ele>
        <time>2021-08-17T13:51:29Z</time>
      </trkpt>
      <trkpt lat="44.00494" lon="2.58064">
        <ele>231.6</ele>
        <time>2021-08-17T13:51:49Z</time>
      </trkpt>
      <trkpt lat="44.00434" lon="2.57958">
        <ele>229.1</ele>
        <time>2021-08-17T13:52:04Z</time>
      </trkpt>
      <trkpt lat="44.00384" lon="2.57821">
        <ele>229</ele>
        <time>2021-08-17T13:52:24Z</time>
      </trkpt>
      <trkpt lat="44.00337" lon="2.57695">
        <ele>228.8</ele>
        <time>2021-08-17T13:52:44Z</time>
      </trkpt>
      <trkpt lat="44.0028" lon="2.5757">
        <ele>229.6</ele>
        <time>2021-08-17T13:53:04Z</time>
      </trkpt>
      <trkpt lat="44.00243" lon="2.57425">
        <ele>231.2</ele>
        <time>2021-08-17T13:53:29Z</time>
      </trkpt>
      <trkpt lat="44.00258" lon="2.57274">
        <ele>231.4</ele>
        <time>2021-08-17T13:53:54Z</time>
      </trkpt>
      <trkpt lat="44.00294" lon="2.57152">
        <ele>231.1</ele>
        <time>2021-08-17T13:54:14Z</time>
      </trkpt>
      <trkpt lat="44.00333" lon="2.57033">
        <ele>228</ele>
        <time>2021-08-17T13:54:34Z</time>
      </trkpt>
      <trkpt lat="44.00354" lon="2.56877">
        <ele>227.6</ele>
        <time>2021-08-17T13:54:59Z</time>
      </trkpt>
      <trkpt lat="44.00348" lon="2.56747">
        <ele>232.4</ele>
        <time>2021-08-17T13:56:51Z</time>
      </trkpt>
      <trkpt lat="44.00343" lon="2.56622">
        <ele>232.2</ele>
        <time>2021-08-17T13:57:16Z</time>
      </trkpt>
      <trkpt lat="44.00319" lon="2.56487">
        <ele>237.8</ele>
        <time>2021-08-17T13:57:51Z</time>
      </trkpt>
      <trkpt lat="44.00268" lon="2.5637">
        <ele>243.5</ele>
        <time>2021-08-17T13:58:26Z</time>
      </trkpt>
      <trkpt lat="44.00181" lon="2.56321">
        <ele>246.1</ele>
        <time>2021-08-17T13:59:01Z</time>
      </trkpt>
      <trkpt lat="44.00081" lon="2.56278">
        <ele>251.4</ele>
        <time>2021-08-17T13:59:36Z</time>
      </trkpt>
      <trkpt lat="44.00044" lon="2.5614">
        <ele>256.6</ele>
        <time>2021-08-17T14:00:55Z</time>
      </trkpt>
      <trkpt lat="43.99941" lon="2.56107">
        <ele>256.8</ele>
        <time>2021-08-17T14:01:10Z</time>
      </trkpt>
      <trkpt lat="43.99877" lon="2.56207">
        <ele>252.8</ele>
        <time>2021-08-17T14:01:20Z</time>
      </trkpt>
      <trkpt lat="43.99823" lon="2.56312">
        <ele>244.2</ele>
        <time>2021-08-17T14:01:35Z</time>
      </trkpt>
      <trkpt lat="43.99733" lon="2.56297">
        <ele>232</ele>
        <time>2021-08-17T14:01:50Z</time>
      </trkpt>
      <trkpt lat="43.9963" lon="2.56262">
        <ele>219.9</ele>
        <time>2021-08-17T14:02:15Z</time>
      </trkpt>
      <trkpt lat="43.99582" lon="2.56144">
        <ele>222.4</ele>
        <time>2021-08-17T14:02:45Z</time>
      </trkpt>
    </trkseg>
  </trk>
</gpx>